<?xml version="1.0" encoding="UTF-8" standalone="no" ?>
<gpx xmlns="http://www.topografix.com/GPX/1/1" xmlns:xsi="http://www.w3.org/2001/XMLSchema-instance" xsi:schemaLocation="http://www.topografix.com/GPX/1/1 http://www.topografix.com/GPX/1/1/gpx.xsd" version="1.1" creator="VisuGPX - https://www.visugpx.com">
  <metadata>
    <name>Cinque Terre - Monterosso-Vernazza</name>
    <desc><![CDATA[Sentier Azzurro (SVA) (Sentier rouge payant) entre Monterosso et Vernazza]]></desc>
  </metadata>
  <trk>
    <name><![CDATA[Monterosso-Vernazza]]></name>
    <trkseg>
      <trkpt lat="44.14551" lon="9.64834">
        <ele>-44.322</ele>
        <time>2018-10-20T08:16:13Z</time>
      </trkpt>
      <trkpt lat="44.14554" lon="9.64837">
        <ele>-44.66</ele>
        <time>2018-10-20T08:16:16Z</time>
      </trkpt>
      <trkpt lat="44.14558" lon="9.64845">
        <ele>-44.254</ele>
        <time>2018-10-20T08:16:21Z</time>
      </trkpt>
      <trkpt lat="44.14559" lon="9.64861">
        <ele>-44.391</ele>
        <time>2018-10-20T08:16:29Z</time>
      </trkpt>
      <trkpt lat="44.14558" lon="9.64867">
        <ele>-19.784</ele>
        <time>2018-10-20T08:16:54Z</time>
      </trkpt>
      <trkpt lat="44.1456" lon="9.6487">
        <ele>-16.816</ele>
        <time>2018-10-20T08:16:59Z</time>
      </trkpt>
      <trkpt lat="44.1456" lon="9.64873">
        <ele>-15.392</ele>
        <time>2018-10-20T08:17:01Z</time>
      </trkpt>
      <trkpt lat="44.1456" lon="9.64886">
        <ele>-11.681</ele>
        <time>2018-10-20T08:17:08Z</time>
      </trkpt>
      <trkpt lat="44.14562" lon="9.64891">
        <ele>-9.695</ele>
        <time>2018-10-20T08:17:12Z</time>
      </trkpt>
      <trkpt lat="44.14562" lon="9.649">
        <ele>-7.723</ele>
        <time>2018-10-20T08:17:20Z</time>
      </trkpt>
      <trkpt lat="44.14569" lon="9.64919">
        <ele>-3.106</ele>
        <time>2018-10-20T08:17:44Z</time>
      </trkpt>
      <trkpt lat="44.14568" lon="9.64935">
        <ele>-2.832</ele>
        <time>2018-10-20T08:17:55Z</time>
      </trkpt>
      <trkpt lat="44.14566" lon="9.6494">
        <ele>-1.868</ele>
        <time>2018-10-20T08:18:48Z</time>
      </trkpt>
      <trkpt lat="44.14568" lon="9.64942">
        <ele>-2.211</ele>
        <time>2018-10-20T08:18:55Z</time>
      </trkpt>
      <trkpt lat="44.14574" lon="9.64953">
        <ele>-1.889</ele>
        <time>2018-10-20T08:19:06Z</time>
      </trkpt>
      <trkpt lat="44.14576" lon="9.64962">
        <ele>-1.967</ele>
        <time>2018-10-20T08:19:12Z</time>
      </trkpt>
      <trkpt lat="44.1458" lon="9.64978">
        <ele>-1.615</ele>
        <time>2018-10-20T08:19:23Z</time>
      </trkpt>
      <trkpt lat="44.14582" lon="9.64988">
        <ele>-2.13</ele>
        <time>2018-10-20T08:19:29Z</time>
      </trkpt>
      <trkpt lat="44.14581" lon="9.65006">
        <ele>-1.74</ele>
        <time>2018-10-20T08:19:40Z</time>
      </trkpt>
      <trkpt lat="44.14581" lon="9.65026">
        <ele>-2.013</ele>
        <time>2018-10-20T08:19:51Z</time>
      </trkpt>
      <trkpt lat="44.1458" lon="9.6505">
        <ele>-2.413</ele>
        <time>2018-10-20T08:20:05Z</time>
      </trkpt>
      <trkpt lat="44.14579" lon="9.65063">
        <ele>-2.314</ele>
        <time>2018-10-20T08:20:12Z</time>
      </trkpt>
      <trkpt lat="44.14579" lon="9.65079">
        <ele>-2.327</ele>
        <time>2018-10-20T08:20:22Z</time>
      </trkpt>
      <trkpt lat="44.14577" lon="9.65107">
        <ele>-2.334</ele>
        <time>2018-10-20T08:20:36Z</time>
      </trkpt>
      <trkpt lat="44.14575" lon="9.65113">
        <ele>-2.646</ele>
        <time>2018-10-20T08:20:44Z</time>
      </trkpt>
      <trkpt lat="44.14575" lon="9.65121">
        <ele>-2.554</ele>
        <time>2018-10-20T08:21:06Z</time>
      </trkpt>
      <trkpt lat="44.14575" lon="9.65135">
        <ele>-2.694</ele>
        <time>2018-10-20T08:21:15Z</time>
      </trkpt>
      <trkpt lat="44.14574" lon="9.65146">
        <ele>-2.731</ele>
        <time>2018-10-20T08:21:22Z</time>
      </trkpt>
      <trkpt lat="44.14573" lon="9.65149">
        <ele>-2.611</ele>
        <time>2018-10-20T08:21:24Z</time>
      </trkpt>
      <trkpt lat="44.14566" lon="9.65169">
        <ele>-2.906</ele>
        <time>2018-10-20T08:21:37Z</time>
      </trkpt>
      <trkpt lat="44.14565" lon="9.65176">
        <ele>-2.569</ele>
        <time>2018-10-20T08:21:41Z</time>
      </trkpt>
      <trkpt lat="44.14563" lon="9.65182">
        <ele>-2.683</ele>
        <time>2018-10-20T08:21:46Z</time>
      </trkpt>
      <trkpt lat="44.14561" lon="9.65193">
        <ele>-2.145</ele>
        <time>2018-10-20T08:21:53Z</time>
      </trkpt>
      <trkpt lat="44.1456" lon="9.65195">
        <ele>-1.927</ele>
        <time>2018-10-20T08:21:56Z</time>
      </trkpt>
      <trkpt lat="44.14559" lon="9.65214">
        <ele>-1.055</ele>
        <time>2018-10-20T08:22:08Z</time>
      </trkpt>
      <trkpt lat="44.14557" lon="9.65229">
        <ele>-0.558</ele>
        <time>2018-10-20T08:22:20Z</time>
      </trkpt>
      <trkpt lat="44.14556" lon="9.65234">
        <ele>-0.702</ele>
        <time>2018-10-20T08:22:23Z</time>
      </trkpt>
      <trkpt lat="44.14557" lon="9.65237">
        <ele>0.078</ele>
        <time>2018-10-20T08:22:25Z</time>
      </trkpt>
      <trkpt lat="44.14557" lon="9.65245">
        <ele>-0.334</ele>
        <time>2018-10-20T08:22:30Z</time>
      </trkpt>
      <trkpt lat="44.14553" lon="9.65251">
        <ele>0.247</ele>
        <time>2018-10-20T08:22:38Z</time>
      </trkpt>
      <trkpt lat="44.14554" lon="9.65264">
        <ele>0.412</ele>
        <time>2018-10-20T08:23:24Z</time>
      </trkpt>
      <trkpt lat="44.1455" lon="9.65277">
        <ele>1.185</ele>
        <time>2018-10-20T08:23:33Z</time>
      </trkpt>
      <trkpt lat="44.1455" lon="9.6528">
        <ele>1.077</ele>
        <time>2018-10-20T08:23:35Z</time>
      </trkpt>
      <trkpt lat="44.1455" lon="9.65291">
        <ele>1.751</ele>
        <time>2018-10-20T08:23:43Z</time>
      </trkpt>
      <trkpt lat="44.14551" lon="9.65294">
        <ele>1.42</ele>
        <time>2018-10-20T08:23:45Z</time>
      </trkpt>
      <trkpt lat="44.14551" lon="9.65299">
        <ele>1.784</ele>
        <time>2018-10-20T08:23:49Z</time>
      </trkpt>
      <trkpt lat="44.1455" lon="9.65319">
        <ele>2.681</ele>
        <time>2018-10-20T08:24:01Z</time>
      </trkpt>
      <trkpt lat="44.14547" lon="9.65321">
        <ele>2.98</ele>
        <time>2018-10-20T08:24:04Z</time>
      </trkpt>
      <trkpt lat="44.14544" lon="9.65326">
        <ele>2.876</ele>
        <time>2018-10-20T08:24:13Z</time>
      </trkpt>
      <trkpt lat="44.14543" lon="9.65331">
        <ele>2.674</ele>
        <time>2018-10-20T08:24:19Z</time>
      </trkpt>
      <trkpt lat="44.14539" lon="9.65338">
        <ele>3.835</ele>
        <time>2018-10-20T08:24:26Z</time>
      </trkpt>
      <trkpt lat="44.14537" lon="9.65338">
        <ele>3.865</ele>
        <time>2018-10-20T08:24:27Z</time>
      </trkpt>
      <trkpt lat="44.14532" lon="9.65337">
        <ele>3.791</ele>
        <time>2018-10-20T08:24:30Z</time>
      </trkpt>
      <trkpt lat="44.14525" lon="9.6534">
        <ele>5.32</ele>
        <time>2018-10-20T08:24:36Z</time>
      </trkpt>
      <trkpt lat="44.1452" lon="9.65345">
        <ele>5.672</ele>
        <time>2018-10-20T08:24:42Z</time>
      </trkpt>
      <trkpt lat="44.1452" lon="9.65349">
        <ele>5.956</ele>
        <time>2018-10-20T08:24:44Z</time>
      </trkpt>
      <trkpt lat="44.14519" lon="9.6536">
        <ele>6.379</ele>
        <time>2018-10-20T08:24:51Z</time>
      </trkpt>
      <trkpt lat="44.1452" lon="9.65364">
        <ele>5.953</ele>
        <time>2018-10-20T08:24:53Z</time>
      </trkpt>
      <trkpt lat="44.14516" lon="9.6537">
        <ele>7.133</ele>
        <time>2018-10-20T08:24:58Z</time>
      </trkpt>
      <trkpt lat="44.14517" lon="9.65382">
        <ele>7.298</ele>
        <time>2018-10-20T08:25:07Z</time>
      </trkpt>
      <trkpt lat="44.1452" lon="9.65394">
        <ele>8.257</ele>
        <time>2018-10-20T08:25:15Z</time>
      </trkpt>
      <trkpt lat="44.14519" lon="9.654">
        <ele>8.344</ele>
        <time>2018-10-20T08:25:19Z</time>
      </trkpt>
      <trkpt lat="44.14517" lon="9.65405">
        <ele>8.683</ele>
        <time>2018-10-20T08:25:23Z</time>
      </trkpt>
      <trkpt lat="44.14515" lon="9.65409">
        <ele>8.453</ele>
        <time>2018-10-20T08:26:19Z</time>
      </trkpt>
      <trkpt lat="44.14515" lon="9.65419">
        <ele>9.493</ele>
        <time>2018-10-20T08:26:36Z</time>
      </trkpt>
      <trkpt lat="44.14515" lon="9.65426">
        <ele>8.996</ele>
        <time>2018-10-20T08:26:41Z</time>
      </trkpt>
      <trkpt lat="44.14516" lon="9.6543">
        <ele>9.087</ele>
        <time>2018-10-20T08:26:48Z</time>
      </trkpt>
      <trkpt lat="44.14521" lon="9.6543">
        <ele>9.274</ele>
        <time>2018-10-20T08:27:28Z</time>
      </trkpt>
      <trkpt lat="44.14525" lon="9.65433">
        <ele>8.775</ele>
        <time>2018-10-20T08:27:33Z</time>
      </trkpt>
      <trkpt lat="44.14534" lon="9.65433">
        <ele>8.268</ele>
        <time>2018-10-20T08:27:41Z</time>
      </trkpt>
      <trkpt lat="44.14542" lon="9.6543">
        <ele>8.132</ele>
        <time>2018-10-20T08:27:48Z</time>
      </trkpt>
      <trkpt lat="44.14546" lon="9.65427">
        <ele>7.895</ele>
        <time>2018-10-20T08:28:02Z</time>
      </trkpt>
      <trkpt lat="44.14553" lon="9.65433">
        <ele>8.002</ele>
        <time>2018-10-20T08:28:09Z</time>
      </trkpt>
      <trkpt lat="44.1456" lon="9.65437">
        <ele>7.591</ele>
        <time>2018-10-20T08:28:19Z</time>
      </trkpt>
      <trkpt lat="44.14565" lon="9.65443">
        <ele>7.628</ele>
        <time>2018-10-20T08:28:27Z</time>
      </trkpt>
      <trkpt lat="44.14568" lon="9.65444">
        <ele>7.279</ele>
        <time>2018-10-20T08:28:30Z</time>
      </trkpt>
      <trkpt lat="44.14576" lon="9.65443">
        <ele>6.281</ele>
        <time>2018-10-20T08:28:40Z</time>
      </trkpt>
      <trkpt lat="44.1458" lon="9.65442">
        <ele>6.128</ele>
        <time>2018-10-20T08:28:53Z</time>
      </trkpt>
      <trkpt lat="44.14583" lon="9.65443">
        <ele>5.292</ele>
        <time>2018-10-20T08:29:06Z</time>
      </trkpt>
      <trkpt lat="44.14589" lon="9.65444">
        <ele>4.107</ele>
        <time>2018-10-20T08:29:14Z</time>
      </trkpt>
      <trkpt lat="44.14593" lon="9.65448">
        <ele>3.315</ele>
        <time>2018-10-20T08:29:18Z</time>
      </trkpt>
      <trkpt lat="44.14599" lon="9.65457">
        <ele>1.543</ele>
        <time>2018-10-20T08:29:27Z</time>
      </trkpt>
      <trkpt lat="44.14605" lon="9.65461">
        <ele>0.285</ele>
        <time>2018-10-20T08:29:35Z</time>
      </trkpt>
      <trkpt lat="44.14612" lon="9.65467">
        <ele>-0.995</ele>
        <time>2018-10-20T08:29:45Z</time>
      </trkpt>
      <trkpt lat="44.14612" lon="9.65474">
        <ele>-3.022</ele>
        <time>2018-10-20T08:29:52Z</time>
      </trkpt>
      <trkpt lat="44.14614" lon="9.65477">
        <ele>-3.61</ele>
        <time>2018-10-20T08:29:55Z</time>
      </trkpt>
      <trkpt lat="44.14621" lon="9.65485">
        <ele>-4.321</ele>
        <time>2018-10-20T08:30:04Z</time>
      </trkpt>
      <trkpt lat="44.14625" lon="9.65487">
        <ele>-4.567</ele>
        <time>2018-10-20T08:30:11Z</time>
      </trkpt>
      <trkpt lat="44.14631" lon="9.65498">
        <ele>-4.62</ele>
        <time>2018-10-20T08:30:21Z</time>
      </trkpt>
      <trkpt lat="44.14638" lon="9.65501">
        <ele>-4.885</ele>
        <time>2018-10-20T08:30:28Z</time>
      </trkpt>
      <trkpt lat="44.14637" lon="9.65524">
        <ele>-4.666</ele>
        <time>2018-10-20T08:31:51Z</time>
      </trkpt>
      <trkpt lat="44.14634" lon="9.65527">
        <ele>-4.327</ele>
        <time>2018-10-20T08:31:54Z</time>
      </trkpt>
      <trkpt lat="44.14633" lon="9.65534">
        <ele>-5.065</ele>
        <time>2018-10-20T08:32:03Z</time>
      </trkpt>
      <trkpt lat="44.14633" lon="9.65541">
        <ele>-5.016</ele>
        <time>2018-10-20T08:33:19Z</time>
      </trkpt>
      <trkpt lat="44.14634" lon="9.65544">
        <ele>-4.5</ele>
        <time>2018-10-20T08:33:29Z</time>
      </trkpt>
      <trkpt lat="44.14632" lon="9.65564">
        <ele>-4.742</ele>
        <time>2018-10-20T08:33:43Z</time>
      </trkpt>
      <trkpt lat="44.14629" lon="9.65578">
        <ele>-4.512</ele>
        <time>2018-10-20T08:33:52Z</time>
      </trkpt>
      <trkpt lat="44.14627" lon="9.65579">
        <ele>-4.198</ele>
        <time>2018-10-20T08:34:23Z</time>
      </trkpt>
      <trkpt lat="44.14613" lon="9.65571">
        <ele>-5.006</ele>
        <time>2018-10-20T08:34:32Z</time>
      </trkpt>
      <trkpt lat="44.14611" lon="9.65571">
        <ele>-4.674</ele>
        <time>2018-10-20T08:34:34Z</time>
      </trkpt>
      <trkpt lat="44.14606" lon="9.65578">
        <ele>-4.62</ele>
        <time>2018-10-20T08:34:41Z</time>
      </trkpt>
      <trkpt lat="44.14602" lon="9.65585">
        <ele>-4.217</ele>
        <time>2018-10-20T08:34:49Z</time>
      </trkpt>
      <trkpt lat="44.14598" lon="9.65586">
        <ele>-4.709</ele>
        <time>2018-10-20T08:34:57Z</time>
      </trkpt>
      <trkpt lat="44.14599" lon="9.65591">
        <ele>-4.518</ele>
        <time>2018-10-20T08:35:16Z</time>
      </trkpt>
      <trkpt lat="44.14599" lon="9.65616">
        <ele>-3.855</ele>
        <time>2018-10-20T08:35:30Z</time>
      </trkpt>
      <trkpt lat="44.14593" lon="9.65631">
        <ele>-2.35</ele>
        <time>2018-10-20T08:35:41Z</time>
      </trkpt>
      <trkpt lat="44.1459" lon="9.65648">
        <ele>-1.928</ele>
        <time>2018-10-20T08:35:52Z</time>
      </trkpt>
      <trkpt lat="44.14591" lon="9.65662">
        <ele>-0.334</ele>
        <time>2018-10-20T08:36:01Z</time>
      </trkpt>
      <trkpt lat="44.14591" lon="9.65669">
        <ele>-0.4</ele>
        <time>2018-10-20T08:36:06Z</time>
      </trkpt>
      <trkpt lat="44.14591" lon="9.65675">
        <ele>-0.076</ele>
        <time>2018-10-20T08:36:09Z</time>
      </trkpt>
      <trkpt lat="44.14588" lon="9.65684">
        <ele>-0.753</ele>
        <time>2018-10-20T08:36:15Z</time>
      </trkpt>
      <trkpt lat="44.14579" lon="9.65694">
        <ele>-1.17</ele>
        <time>2018-10-20T08:36:26Z</time>
      </trkpt>
      <trkpt lat="44.14576" lon="9.657">
        <ele>-0.586</ele>
        <time>2018-10-20T08:36:33Z</time>
      </trkpt>
      <trkpt lat="44.14568" lon="9.65705">
        <ele>0.481</ele>
        <time>2018-10-20T08:36:42Z</time>
      </trkpt>
      <trkpt lat="44.1456" lon="9.65714">
        <ele>2.109</ele>
        <time>2018-10-20T08:36:53Z</time>
      </trkpt>
      <trkpt lat="44.14559" lon="9.65717">
        <ele>2.311</ele>
        <time>2018-10-20T08:37:06Z</time>
      </trkpt>
      <trkpt lat="44.14558" lon="9.6572">
        <ele>3.162</ele>
        <time>2018-10-20T08:37:08Z</time>
      </trkpt>
      <trkpt lat="44.14557" lon="9.65724">
        <ele>2.691</ele>
        <time>2018-10-20T08:37:11Z</time>
      </trkpt>
      <trkpt lat="44.14554" lon="9.6573">
        <ele>3.437</ele>
        <time>2018-10-20T08:37:16Z</time>
      </trkpt>
      <trkpt lat="44.14554" lon="9.65735">
        <ele>3.695</ele>
        <time>2018-10-20T08:37:19Z</time>
      </trkpt>
      <trkpt lat="44.14552" lon="9.65743">
        <ele>3.963</ele>
        <time>2018-10-20T08:37:25Z</time>
      </trkpt>
      <trkpt lat="44.14553" lon="9.65757">
        <ele>5.133</ele>
        <time>2018-10-20T08:37:35Z</time>
      </trkpt>
      <trkpt lat="44.14552" lon="9.65762">
        <ele>5.292</ele>
        <time>2018-10-20T08:37:38Z</time>
      </trkpt>
      <trkpt lat="44.14552" lon="9.65768">
        <ele>5.993</ele>
        <time>2018-10-20T08:37:45Z</time>
      </trkpt>
      <trkpt lat="44.14551" lon="9.65769">
        <ele>6.283</ele>
        <time>2018-10-20T08:37:52Z</time>
      </trkpt>
      <trkpt lat="44.14548" lon="9.6577">
        <ele>6.04</ele>
        <time>2018-10-20T08:37:54Z</time>
      </trkpt>
      <trkpt lat="44.14541" lon="9.65775">
        <ele>7.213</ele>
        <time>2018-10-20T08:38:01Z</time>
      </trkpt>
      <trkpt lat="44.14538" lon="9.65776">
        <ele>8.005</ele>
        <time>2018-10-20T08:38:04Z</time>
      </trkpt>
      <trkpt lat="44.14532" lon="9.65781">
        <ele>9.748</ele>
        <time>2018-10-20T08:38:13Z</time>
      </trkpt>
      <trkpt lat="44.14525" lon="9.65781">
        <ele>10.528</ele>
        <time>2018-10-20T08:38:19Z</time>
      </trkpt>
      <trkpt lat="44.14523" lon="9.65781">
        <ele>11.031</ele>
        <time>2018-10-20T08:38:21Z</time>
      </trkpt>
      <trkpt lat="44.1452" lon="9.65784">
        <ele>11.174</ele>
        <time>2018-10-20T08:38:29Z</time>
      </trkpt>
      <trkpt lat="44.14518" lon="9.65784">
        <ele>11.079</ele>
        <time>2018-10-20T08:38:32Z</time>
      </trkpt>
      <trkpt lat="44.14512" lon="9.65782">
        <ele>8.298</ele>
        <time>2018-10-20T08:38:42Z</time>
      </trkpt>
      <trkpt lat="44.14507" lon="9.65781">
        <ele>8.036</ele>
        <time>2018-10-20T08:38:46Z</time>
      </trkpt>
      <trkpt lat="44.14503" lon="9.65781">
        <ele>9.391</ele>
        <time>2018-10-20T08:38:56Z</time>
      </trkpt>
      <trkpt lat="44.14499" lon="9.65784">
        <ele>9.413</ele>
        <time>2018-10-20T08:39:37Z</time>
      </trkpt>
      <trkpt lat="44.14499" lon="9.6579">
        <ele>9.595</ele>
        <time>2018-10-20T08:39:47Z</time>
      </trkpt>
      <trkpt lat="44.14494" lon="9.65797">
        <ele>9.357</ele>
        <time>2018-10-20T08:39:59Z</time>
      </trkpt>
      <trkpt lat="44.1449" lon="9.65806">
        <ele>7.554</ele>
        <time>2018-10-20T08:41:16Z</time>
      </trkpt>
      <trkpt lat="44.14484" lon="9.6581">
        <ele>7.015</ele>
        <time>2018-10-20T08:41:22Z</time>
      </trkpt>
      <trkpt lat="44.14476" lon="9.65813">
        <ele>6.892</ele>
        <time>2018-10-20T08:41:31Z</time>
      </trkpt>
      <trkpt lat="44.14474" lon="9.65816">
        <ele>6.581</ele>
        <time>2018-10-20T08:41:58Z</time>
      </trkpt>
      <trkpt lat="44.1447" lon="9.6582">
        <ele>7.25</ele>
        <time>2018-10-20T08:42:09Z</time>
      </trkpt>
      <trkpt lat="44.14467" lon="9.65824">
        <ele>6.956</ele>
        <time>2018-10-20T08:42:34Z</time>
      </trkpt>
      <trkpt lat="44.14463" lon="9.6583">
        <ele>7.494</ele>
        <time>2018-10-20T08:42:39Z</time>
      </trkpt>
      <trkpt lat="44.14457" lon="9.65844">
        <ele>8.08</ele>
        <time>2018-10-20T08:42:49Z</time>
      </trkpt>
      <trkpt lat="44.14456" lon="9.65849">
        <ele>8.203</ele>
        <time>2018-10-20T08:42:52Z</time>
      </trkpt>
      <trkpt lat="44.14454" lon="9.65857">
        <ele>9.754</ele>
        <time>2018-10-20T08:43:00Z</time>
      </trkpt>
      <trkpt lat="44.14454" lon="9.65861">
        <ele>10.7</ele>
        <time>2018-10-20T08:43:06Z</time>
      </trkpt>
      <trkpt lat="44.14453" lon="9.65867">
        <ele>12.242</ele>
        <time>2018-10-20T08:43:13Z</time>
      </trkpt>
      <trkpt lat="44.1445" lon="9.65869">
        <ele>14.402</ele>
        <time>2018-10-20T08:43:21Z</time>
      </trkpt>
      <trkpt lat="44.1445" lon="9.65875">
        <ele>16.799</ele>
        <time>2018-10-20T08:43:48Z</time>
      </trkpt>
      <trkpt lat="44.1445" lon="9.65885">
        <ele>17.536</ele>
        <time>2018-10-20T08:43:57Z</time>
      </trkpt>
      <trkpt lat="44.14446" lon="9.65891">
        <ele>18.401</ele>
        <time>2018-10-20T08:44:06Z</time>
      </trkpt>
      <trkpt lat="44.14449" lon="9.65893">
        <ele>22.544</ele>
        <time>2018-10-20T08:44:35Z</time>
      </trkpt>
      <trkpt lat="44.14454" lon="9.65896">
        <ele>25.728</ele>
        <time>2018-10-20T08:44:47Z</time>
      </trkpt>
      <trkpt lat="44.14452" lon="9.65905">
        <ele>28.77</ele>
        <time>2018-10-20T08:45:01Z</time>
      </trkpt>
      <trkpt lat="44.14466" lon="9.65909">
        <ele>30.793</ele>
        <time>2018-10-20T08:45:12Z</time>
      </trkpt>
      <trkpt lat="44.14461" lon="9.65911">
        <ele>31.425</ele>
        <time>2018-10-20T08:45:21Z</time>
      </trkpt>
      <trkpt lat="44.14458" lon="9.65915">
        <ele>32.061</ele>
        <time>2018-10-20T08:45:27Z</time>
      </trkpt>
      <trkpt lat="44.14455" lon="9.65922">
        <ele>32.118</ele>
        <time>2018-10-20T08:45:35Z</time>
      </trkpt>
      <trkpt lat="44.14454" lon="9.65925">
        <ele>32.226</ele>
        <time>2018-10-20T08:45:46Z</time>
      </trkpt>
      <trkpt lat="44.14457" lon="9.6593">
        <ele>32.289</ele>
        <time>2018-10-20T08:45:56Z</time>
      </trkpt>
      <trkpt lat="44.14461" lon="9.65935">
        <ele>32.968</ele>
        <time>2018-10-20T08:46:22Z</time>
      </trkpt>
      <trkpt lat="44.14464" lon="9.65941">
        <ele>31.593</ele>
        <time>2018-10-20T08:46:28Z</time>
      </trkpt>
      <trkpt lat="44.1447" lon="9.6595">
        <ele>32.334</ele>
        <time>2018-10-20T08:47:47Z</time>
      </trkpt>
      <trkpt lat="44.14474" lon="9.65962">
        <ele>32.082</ele>
        <time>2018-10-20T08:47:56Z</time>
      </trkpt>
      <trkpt lat="44.14479" lon="9.65967">
        <ele>33.36</ele>
        <time>2018-10-20T08:48:17Z</time>
      </trkpt>
      <trkpt lat="44.14482" lon="9.65975">
        <ele>33.437</ele>
        <time>2018-10-20T08:48:23Z</time>
      </trkpt>
      <trkpt lat="44.14483" lon="9.65979">
        <ele>33.579</ele>
        <time>2018-10-20T08:48:26Z</time>
      </trkpt>
      <trkpt lat="44.14487" lon="9.65992">
        <ele>33.452</ele>
        <time>2018-10-20T08:48:37Z</time>
      </trkpt>
      <trkpt lat="44.14494" lon="9.66005">
        <ele>33.639</ele>
        <time>2018-10-20T08:48:50Z</time>
      </trkpt>
      <trkpt lat="44.14498" lon="9.66015">
        <ele>33.936</ele>
        <time>2018-10-20T08:48:59Z</time>
      </trkpt>
      <trkpt lat="44.14497" lon="9.66023">
        <ele>34.404</ele>
        <time>2018-10-20T08:49:04Z</time>
      </trkpt>
      <trkpt lat="44.14497" lon="9.66027">
        <ele>34.365</ele>
        <time>2018-10-20T08:49:07Z</time>
      </trkpt>
      <trkpt lat="44.14495" lon="9.66033">
        <ele>34.527</ele>
        <time>2018-10-20T08:49:18Z</time>
      </trkpt>
      <trkpt lat="44.14496" lon="9.66042">
        <ele>34.719</ele>
        <time>2018-10-20T08:49:33Z</time>
      </trkpt>
      <trkpt lat="44.145" lon="9.66049">
        <ele>35.906</ele>
        <time>2018-10-20T08:49:45Z</time>
      </trkpt>
      <trkpt lat="44.14495" lon="9.66053">
        <ele>38.531</ele>
        <time>2018-10-20T08:49:56Z</time>
      </trkpt>
      <trkpt lat="44.14502" lon="9.66058">
        <ele>39.887</ele>
        <time>2018-10-20T08:51:02Z</time>
      </trkpt>
      <trkpt lat="44.14503" lon="9.66063">
        <ele>41.48</ele>
        <time>2018-10-20T08:51:12Z</time>
      </trkpt>
      <trkpt lat="44.14502" lon="9.66067">
        <ele>43.135</ele>
        <time>2018-10-20T08:51:22Z</time>
      </trkpt>
      <trkpt lat="44.14503" lon="9.66072">
        <ele>44.265</ele>
        <time>2018-10-20T08:51:36Z</time>
      </trkpt>
      <trkpt lat="44.14502" lon="9.66076">
        <ele>46.409</ele>
        <time>2018-10-20T08:51:44Z</time>
      </trkpt>
      <trkpt lat="44.14499" lon="9.66078">
        <ele>48.223</ele>
        <time>2018-10-20T08:51:50Z</time>
      </trkpt>
      <trkpt lat="44.14497" lon="9.66084">
        <ele>50.334</ele>
        <time>2018-10-20T08:52:01Z</time>
      </trkpt>
      <trkpt lat="44.14496" lon="9.66087">
        <ele>52.163</ele>
        <time>2018-10-20T08:52:06Z</time>
      </trkpt>
      <trkpt lat="44.14499" lon="9.66094">
        <ele>54.952</ele>
        <time>2018-10-20T08:52:17Z</time>
      </trkpt>
      <trkpt lat="44.14499" lon="9.66098">
        <ele>54.739</ele>
        <time>2018-10-20T08:52:27Z</time>
      </trkpt>
      <trkpt lat="44.14502" lon="9.661">
        <ele>54.602</ele>
        <time>2018-10-20T08:52:30Z</time>
      </trkpt>
      <trkpt lat="44.14509" lon="9.66109">
        <ele>54.504</ele>
        <time>2018-10-20T08:52:40Z</time>
      </trkpt>
      <trkpt lat="44.14514" lon="9.66116">
        <ele>54.304</ele>
        <time>2018-10-20T08:52:49Z</time>
      </trkpt>
      <trkpt lat="44.14521" lon="9.66121">
        <ele>55.053</ele>
        <time>2018-10-20T08:52:57Z</time>
      </trkpt>
      <trkpt lat="44.14525" lon="9.66127">
        <ele>55.284</ele>
        <time>2018-10-20T08:53:06Z</time>
      </trkpt>
      <trkpt lat="44.14531" lon="9.66137">
        <ele>55.133</ele>
        <time>2018-10-20T08:53:18Z</time>
      </trkpt>
      <trkpt lat="44.14535" lon="9.66143">
        <ele>55.354</ele>
        <time>2018-10-20T08:53:25Z</time>
      </trkpt>
      <trkpt lat="44.14538" lon="9.66146">
        <ele>55.657</ele>
        <time>2018-10-20T08:53:35Z</time>
      </trkpt>
      <trkpt lat="44.14541" lon="9.66151">
        <ele>56.022</ele>
        <time>2018-10-20T08:53:59Z</time>
      </trkpt>
      <trkpt lat="44.14547" lon="9.66156">
        <ele>58.42</ele>
        <time>2018-10-20T08:54:09Z</time>
      </trkpt>
      <trkpt lat="44.14553" lon="9.6616">
        <ele>59.694</ele>
        <time>2018-10-20T08:54:18Z</time>
      </trkpt>
      <trkpt lat="44.1456" lon="9.66167">
        <ele>61.721</ele>
        <time>2018-10-20T08:54:30Z</time>
      </trkpt>
      <trkpt lat="44.1456" lon="9.66173">
        <ele>62.42</ele>
        <time>2018-10-20T08:54:39Z</time>
      </trkpt>
      <trkpt lat="44.14559" lon="9.6618">
        <ele>64.263</ele>
        <time>2018-10-20T08:54:47Z</time>
      </trkpt>
      <trkpt lat="44.14553" lon="9.66184">
        <ele>65.89</ele>
        <time>2018-10-20T08:55:00Z</time>
      </trkpt>
      <trkpt lat="44.14549" lon="9.66185">
        <ele>67.297</ele>
        <time>2018-10-20T08:55:11Z</time>
      </trkpt>
      <trkpt lat="44.14546" lon="9.66189">
        <ele>69.133</ele>
        <time>2018-10-20T08:55:20Z</time>
      </trkpt>
      <trkpt lat="44.1454" lon="9.66189">
        <ele>70.157</ele>
        <time>2018-10-20T08:55:27Z</time>
      </trkpt>
      <trkpt lat="44.14537" lon="9.66193">
        <ele>72.793</ele>
        <time>2018-10-20T08:57:46Z</time>
      </trkpt>
      <trkpt lat="44.14534" lon="9.66197">
        <ele>73.803</ele>
        <time>2018-10-20T08:57:54Z</time>
      </trkpt>
      <trkpt lat="44.14533" lon="9.662">
        <ele>74.668</ele>
        <time>2018-10-20T08:57:59Z</time>
      </trkpt>
      <trkpt lat="44.14527" lon="9.66203">
        <ele>76.506</ele>
        <time>2018-10-20T08:58:07Z</time>
      </trkpt>
      <trkpt lat="44.1452" lon="9.66197">
        <ele>80.532</ele>
        <time>2018-10-20T08:58:35Z</time>
      </trkpt>
      <trkpt lat="44.14516" lon="9.66193">
        <ele>80.942</ele>
        <time>2018-10-20T08:58:42Z</time>
      </trkpt>
      <trkpt lat="44.14511" lon="9.66189">
        <ele>82.673</ele>
        <time>2018-10-20T08:58:51Z</time>
      </trkpt>
      <trkpt lat="44.14509" lon="9.66191">
        <ele>84.699</ele>
        <time>2018-10-20T08:59:13Z</time>
      </trkpt>
      <trkpt lat="44.14507" lon="9.66195">
        <ele>86.296</ele>
        <time>2018-10-20T08:59:38Z</time>
      </trkpt>
      <trkpt lat="44.14504" lon="9.66196">
        <ele>88.495</ele>
        <time>2018-10-20T08:59:46Z</time>
      </trkpt>
      <trkpt lat="44.14501" lon="9.66199">
        <ele>89.93</ele>
        <time>2018-10-20T08:59:57Z</time>
      </trkpt>
      <trkpt lat="44.14499" lon="9.66206">
        <ele>92.661</ele>
        <time>2018-10-20T09:00:18Z</time>
      </trkpt>
      <trkpt lat="44.14498" lon="9.66214">
        <ele>96.075</ele>
        <time>2018-10-20T09:00:29Z</time>
      </trkpt>
      <trkpt lat="44.14496" lon="9.66214">
        <ele>96.714</ele>
        <time>2018-10-20T09:00:37Z</time>
      </trkpt>
      <trkpt lat="44.14493" lon="9.6622">
        <ele>100.251</ele>
        <time>2018-10-20T09:00:52Z</time>
      </trkpt>
      <trkpt lat="44.14491" lon="9.66223">
        <ele>101.543</ele>
        <time>2018-10-20T09:00:59Z</time>
      </trkpt>
      <trkpt lat="44.1449" lon="9.66225">
        <ele>102.815</ele>
        <time>2018-10-20T09:01:09Z</time>
      </trkpt>
      <trkpt lat="44.14488" lon="9.6623">
        <ele>104.87</ele>
        <time>2018-10-20T09:01:29Z</time>
      </trkpt>
      <trkpt lat="44.14485" lon="9.66233">
        <ele>109.019</ele>
        <time>2018-10-20T09:01:45Z</time>
      </trkpt>
      <trkpt lat="44.14484" lon="9.66237">
        <ele>108.222</ele>
        <time>2018-10-20T09:02:09Z</time>
      </trkpt>
      <trkpt lat="44.14481" lon="9.66246">
        <ele>110.714</ele>
        <time>2018-10-20T09:02:20Z</time>
      </trkpt>
      <trkpt lat="44.14479" lon="9.66251">
        <ele>112.178</ele>
        <time>2018-10-20T09:02:28Z</time>
      </trkpt>
      <trkpt lat="44.14478" lon="9.66256">
        <ele>114.037</ele>
        <time>2018-10-20T09:02:51Z</time>
      </trkpt>
      <trkpt lat="44.14477" lon="9.66259">
        <ele>115.069</ele>
        <time>2018-10-20T09:03:01Z</time>
      </trkpt>
      <trkpt lat="44.14476" lon="9.66262">
        <ele>116.358</ele>
        <time>2018-10-20T09:03:05Z</time>
      </trkpt>
      <trkpt lat="44.14472" lon="9.6627">
        <ele>118.463</ele>
        <time>2018-10-20T09:03:15Z</time>
      </trkpt>
      <trkpt lat="44.14471" lon="9.66273">
        <ele>119.974</ele>
        <time>2018-10-20T09:03:24Z</time>
      </trkpt>
      <trkpt lat="44.14467" lon="9.66276">
        <ele>121.235</ele>
        <time>2018-10-20T09:03:30Z</time>
      </trkpt>
      <trkpt lat="44.14468" lon="9.6628">
        <ele>121.826</ele>
        <time>2018-10-20T09:04:17Z</time>
      </trkpt>
      <trkpt lat="44.14468" lon="9.66285">
        <ele>122.307</ele>
        <time>2018-10-20T09:04:33Z</time>
      </trkpt>
      <trkpt lat="44.14468" lon="9.66293">
        <ele>124.946</ele>
        <time>2018-10-20T09:04:44Z</time>
      </trkpt>
      <trkpt lat="44.14468" lon="9.66296">
        <ele>125.101</ele>
        <time>2018-10-20T09:05:03Z</time>
      </trkpt>
      <trkpt lat="44.14466" lon="9.66303">
        <ele>127.196</ele>
        <time>2018-10-20T09:05:11Z</time>
      </trkpt>
      <trkpt lat="44.14465" lon="9.66309">
        <ele>129.586</ele>
        <time>2018-10-20T09:05:20Z</time>
      </trkpt>
      <trkpt lat="44.14465" lon="9.66312">
        <ele>130.371</ele>
        <time>2018-10-20T09:05:23Z</time>
      </trkpt>
      <trkpt lat="44.14465" lon="9.6632">
        <ele>132.024</ele>
        <time>2018-10-20T09:05:32Z</time>
      </trkpt>
      <trkpt lat="44.14463" lon="9.66325">
        <ele>134.36</ele>
        <time>2018-10-20T09:05:41Z</time>
      </trkpt>
      <trkpt lat="44.14456" lon="9.66322">
        <ele>137.158</ele>
        <time>2018-10-20T09:06:21Z</time>
      </trkpt>
      <trkpt lat="44.14453" lon="9.66323">
        <ele>137.659</ele>
        <time>2018-10-20T09:06:28Z</time>
      </trkpt>
      <trkpt lat="44.14449" lon="9.66325">
        <ele>137.987</ele>
        <time>2018-10-20T09:06:37Z</time>
      </trkpt>
      <trkpt lat="44.14444" lon="9.66322">
        <ele>137.209</ele>
        <time>2018-10-20T09:06:57Z</time>
      </trkpt>
      <trkpt lat="44.14442" lon="9.66321">
        <ele>137.573</ele>
        <time>2018-10-20T09:07:04Z</time>
      </trkpt>
      <trkpt lat="44.14435" lon="9.66321">
        <ele>137.415</ele>
        <time>2018-10-20T09:07:16Z</time>
      </trkpt>
      <trkpt lat="44.14428" lon="9.66322">
        <ele>136.801</ele>
        <time>2018-10-20T09:07:26Z</time>
      </trkpt>
      <trkpt lat="44.14421" lon="9.6634">
        <ele>137.143</ele>
        <time>2018-10-20T09:07:44Z</time>
      </trkpt>
      <trkpt lat="44.14421" lon="9.66351">
        <ele>138.674</ele>
        <time>2018-10-20T09:07:52Z</time>
      </trkpt>
      <trkpt lat="44.14421" lon="9.66354">
        <ele>137.946</ele>
        <time>2018-10-20T09:07:54Z</time>
      </trkpt>
      <trkpt lat="44.14415" lon="9.66368">
        <ele>137.756</ele>
        <time>2018-10-20T09:08:06Z</time>
      </trkpt>
      <trkpt lat="44.14412" lon="9.66375">
        <ele>137.236</ele>
        <time>2018-10-20T09:08:17Z</time>
      </trkpt>
      <trkpt lat="44.14411" lon="9.66381">
        <ele>136.214</ele>
        <time>2018-10-20T09:08:58Z</time>
      </trkpt>
      <trkpt lat="44.14411" lon="9.66385">
        <ele>136.112</ele>
        <time>2018-10-20T09:09:07Z</time>
      </trkpt>
      <trkpt lat="44.14415" lon="9.66386">
        <ele>136.325</ele>
        <time>2018-10-20T09:09:15Z</time>
      </trkpt>
      <trkpt lat="44.14417" lon="9.66385">
        <ele>136.965</ele>
        <time>2018-10-20T09:09:18Z</time>
      </trkpt>
      <trkpt lat="44.14424" lon="9.66384">
        <ele>138.17</ele>
        <time>2018-10-20T09:09:29Z</time>
      </trkpt>
      <trkpt lat="44.14427" lon="9.66386">
        <ele>140.235</ele>
        <time>2018-10-20T09:09:39Z</time>
      </trkpt>
      <trkpt lat="44.14432" lon="9.66395">
        <ele>139.882</ele>
        <time>2018-10-20T09:09:48Z</time>
      </trkpt>
      <trkpt lat="44.14432" lon="9.66397">
        <ele>139.773</ele>
        <time>2018-10-20T09:09:56Z</time>
      </trkpt>
      <trkpt lat="44.14434" lon="9.66401">
        <ele>139.993</ele>
        <time>2018-10-20T09:10:14Z</time>
      </trkpt>
      <trkpt lat="44.14435" lon="9.66404">
        <ele>139.994</ele>
        <time>2018-10-20T09:10:22Z</time>
      </trkpt>
      <trkpt lat="44.1444" lon="9.66425">
        <ele>139.908</ele>
        <time>2018-10-20T09:10:35Z</time>
      </trkpt>
      <trkpt lat="44.14441" lon="9.66429">
        <ele>139.711</ele>
        <time>2018-10-20T09:10:44Z</time>
      </trkpt>
      <trkpt lat="44.14448" lon="9.66441">
        <ele>140.684</ele>
        <time>2018-10-20T09:10:54Z</time>
      </trkpt>
      <trkpt lat="44.14455" lon="9.66454">
        <ele>140.319</ele>
        <time>2018-10-20T09:11:05Z</time>
      </trkpt>
      <trkpt lat="44.14459" lon="9.66468">
        <ele>139.475</ele>
        <time>2018-10-20T09:11:16Z</time>
      </trkpt>
      <trkpt lat="44.14463" lon="9.66477">
        <ele>139.253</ele>
        <time>2018-10-20T09:11:22Z</time>
      </trkpt>
      <trkpt lat="44.14467" lon="9.6649">
        <ele>140.298</ele>
        <time>2018-10-20T09:11:32Z</time>
      </trkpt>
      <trkpt lat="44.1447" lon="9.66502">
        <ele>139.862</ele>
        <time>2018-10-20T09:11:43Z</time>
      </trkpt>
      <trkpt lat="44.14472" lon="9.66504">
        <ele>139.23</ele>
        <time>2018-10-20T09:11:46Z</time>
      </trkpt>
      <trkpt lat="44.14479" lon="9.66515">
        <ele>138.632</ele>
        <time>2018-10-20T09:11:57Z</time>
      </trkpt>
      <trkpt lat="44.14483" lon="9.66532">
        <ele>138.873</ele>
        <time>2018-10-20T09:12:10Z</time>
      </trkpt>
      <trkpt lat="44.14486" lon="9.66539">
        <ele>139.288</ele>
        <time>2018-10-20T09:12:31Z</time>
      </trkpt>
      <trkpt lat="44.14488" lon="9.66547">
        <ele>139.054</ele>
        <time>2018-10-20T09:12:37Z</time>
      </trkpt>
      <trkpt lat="44.14493" lon="9.66554">
        <ele>138.522</ele>
        <time>2018-10-20T09:12:46Z</time>
      </trkpt>
      <trkpt lat="44.14495" lon="9.66556">
        <ele>138.909</ele>
        <time>2018-10-20T09:12:51Z</time>
      </trkpt>
      <trkpt lat="44.14495" lon="9.66563">
        <ele>137.611</ele>
        <time>2018-10-20T09:12:58Z</time>
      </trkpt>
      <trkpt lat="44.14497" lon="9.66568">
        <ele>136.374</ele>
        <time>2018-10-20T09:13:03Z</time>
      </trkpt>
      <trkpt lat="44.14497" lon="9.66571">
        <ele>135.454</ele>
        <time>2018-10-20T09:13:07Z</time>
      </trkpt>
      <trkpt lat="44.145" lon="9.6658">
        <ele>134.83</ele>
        <time>2018-10-20T09:13:15Z</time>
      </trkpt>
      <trkpt lat="44.14504" lon="9.66588">
        <ele>135.15</ele>
        <time>2018-10-20T09:13:24Z</time>
      </trkpt>
      <trkpt lat="44.14503" lon="9.66593">
        <ele>134.185</ele>
        <time>2018-10-20T09:13:45Z</time>
      </trkpt>
      <trkpt lat="44.1451" lon="9.66604">
        <ele>133.216</ele>
        <time>2018-10-20T09:14:04Z</time>
      </trkpt>
      <trkpt lat="44.14518" lon="9.66617">
        <ele>132.151</ele>
        <time>2018-10-20T09:14:14Z</time>
      </trkpt>
      <trkpt lat="44.14524" lon="9.66626">
        <ele>130.77</ele>
        <time>2018-10-20T09:14:22Z</time>
      </trkpt>
      <trkpt lat="44.1453" lon="9.66632">
        <ele>130.592</ele>
        <time>2018-10-20T09:14:29Z</time>
      </trkpt>
      <trkpt lat="44.14537" lon="9.66635">
        <ele>130.341</ele>
        <time>2018-10-20T09:14:36Z</time>
      </trkpt>
      <trkpt lat="44.14545" lon="9.66638">
        <ele>128.97</ele>
        <time>2018-10-20T09:14:44Z</time>
      </trkpt>
      <trkpt lat="44.14545" lon="9.66644">
        <ele>129.175</ele>
        <time>2018-10-20T09:14:52Z</time>
      </trkpt>
      <trkpt lat="44.14544" lon="9.66647">
        <ele>129.196</ele>
        <time>2018-10-20T09:15:00Z</time>
      </trkpt>
      <trkpt lat="44.14543" lon="9.6666">
        <ele>129.286</ele>
        <time>2018-10-20T09:15:11Z</time>
      </trkpt>
      <trkpt lat="44.1454" lon="9.66678">
        <ele>130.247</ele>
        <time>2018-10-20T09:15:23Z</time>
      </trkpt>
      <trkpt lat="44.14539" lon="9.66685">
        <ele>130.877</ele>
        <time>2018-10-20T09:15:31Z</time>
      </trkpt>
      <trkpt lat="44.1454" lon="9.66691">
        <ele>130.111</ele>
        <time>2018-10-20T09:15:48Z</time>
      </trkpt>
      <trkpt lat="44.14544" lon="9.66699">
        <ele>129.791</ele>
        <time>2018-10-20T09:15:56Z</time>
      </trkpt>
      <trkpt lat="44.14545" lon="9.66706">
        <ele>129.15</ele>
        <time>2018-10-20T09:16:04Z</time>
      </trkpt>
      <trkpt lat="44.14548" lon="9.66712">
        <ele>128.293</ele>
        <time>2018-10-20T09:16:13Z</time>
      </trkpt>
      <trkpt lat="44.14551" lon="9.66719">
        <ele>126.473</ele>
        <time>2018-10-20T09:16:20Z</time>
      </trkpt>
      <trkpt lat="44.14558" lon="9.66725">
        <ele>125.235</ele>
        <time>2018-10-20T09:16:29Z</time>
      </trkpt>
      <trkpt lat="44.14565" lon="9.66731">
        <ele>125.033</ele>
        <time>2018-10-20T09:16:37Z</time>
      </trkpt>
      <trkpt lat="44.14572" lon="9.66735">
        <ele>125.623</ele>
        <time>2018-10-20T09:16:44Z</time>
      </trkpt>
      <trkpt lat="44.14578" lon="9.66743">
        <ele>125.271</ele>
        <time>2018-10-20T09:16:52Z</time>
      </trkpt>
      <trkpt lat="44.14584" lon="9.66753">
        <ele>124.417</ele>
        <time>2018-10-20T09:17:00Z</time>
      </trkpt>
      <trkpt lat="44.14588" lon="9.66765">
        <ele>124.815</ele>
        <time>2018-10-20T09:17:09Z</time>
      </trkpt>
      <trkpt lat="44.14588" lon="9.66771">
        <ele>125.919</ele>
        <time>2018-10-20T09:17:15Z</time>
      </trkpt>
      <trkpt lat="44.14591" lon="9.6678">
        <ele>127.092</ele>
        <time>2018-10-20T09:17:25Z</time>
      </trkpt>
      <trkpt lat="44.1459" lon="9.6679">
        <ele>127.824</ele>
        <time>2018-10-20T09:17:33Z</time>
      </trkpt>
      <trkpt lat="44.14583" lon="9.66793">
        <ele>128.146</ele>
        <time>2018-10-20T09:18:43Z</time>
      </trkpt>
      <trkpt lat="44.14579" lon="9.66792">
        <ele>130.46</ele>
        <time>2018-10-20T09:18:56Z</time>
      </trkpt>
      <trkpt lat="44.14576" lon="9.66795">
        <ele>132.179</ele>
        <time>2018-10-20T09:19:04Z</time>
      </trkpt>
      <trkpt lat="44.14572" lon="9.66793">
        <ele>133.881</ele>
        <time>2018-10-20T09:19:13Z</time>
      </trkpt>
      <trkpt lat="44.14564" lon="9.66791">
        <ele>133.424</ele>
        <time>2018-10-20T09:19:22Z</time>
      </trkpt>
      <trkpt lat="44.14559" lon="9.66789">
        <ele>132.509</ele>
        <time>2018-10-20T09:19:30Z</time>
      </trkpt>
      <trkpt lat="44.14557" lon="9.66786">
        <ele>132.134</ele>
        <time>2018-10-20T09:19:36Z</time>
      </trkpt>
      <trkpt lat="44.14553" lon="9.66787">
        <ele>132.337</ele>
        <time>2018-10-20T09:19:47Z</time>
      </trkpt>
      <trkpt lat="44.14544" lon="9.66786">
        <ele>132.483</ele>
        <time>2018-10-20T09:19:56Z</time>
      </trkpt>
      <trkpt lat="44.14538" lon="9.66787">
        <ele>132.711</ele>
        <time>2018-10-20T09:20:02Z</time>
      </trkpt>
      <trkpt lat="44.14535" lon="9.66786">
        <ele>132.482</ele>
        <time>2018-10-20T09:20:08Z</time>
      </trkpt>
      <trkpt lat="44.14528" lon="9.66784">
        <ele>132.821</ele>
        <time>2018-10-20T09:20:34Z</time>
      </trkpt>
      <trkpt lat="44.14522" lon="9.66785">
        <ele>133.579</ele>
        <time>2018-10-20T09:20:43Z</time>
      </trkpt>
      <trkpt lat="44.14509" lon="9.66782">
        <ele>133.304</ele>
        <time>2018-10-20T09:20:51Z</time>
      </trkpt>
      <trkpt lat="44.14501" lon="9.66779">
        <ele>133.031</ele>
        <time>2018-10-20T09:21:00Z</time>
      </trkpt>
      <trkpt lat="44.14497" lon="9.66777">
        <ele>133.584</ele>
        <time>2018-10-20T09:21:13Z</time>
      </trkpt>
      <trkpt lat="44.14493" lon="9.66773">
        <ele>133.346</ele>
        <time>2018-10-20T09:21:21Z</time>
      </trkpt>
      <trkpt lat="44.14486" lon="9.66769">
        <ele>133.032</ele>
        <time>2018-10-20T09:21:28Z</time>
      </trkpt>
      <trkpt lat="44.14479" lon="9.66767">
        <ele>132.629</ele>
        <time>2018-10-20T09:21:32Z</time>
      </trkpt>
      <trkpt lat="44.14464" lon="9.66764">
        <ele>133.052</ele>
        <time>2018-10-20T09:21:41Z</time>
      </trkpt>
      <trkpt lat="44.14456" lon="9.66763">
        <ele>133.408</ele>
        <time>2018-10-20T09:21:50Z</time>
      </trkpt>
      <trkpt lat="44.14451" lon="9.66771">
        <ele>134.99</ele>
        <time>2018-10-20T09:22:00Z</time>
      </trkpt>
      <trkpt lat="44.1445" lon="9.66773">
        <ele>135.4</ele>
        <time>2018-10-20T09:22:08Z</time>
      </trkpt>
      <trkpt lat="44.14451" lon="9.66777">
        <ele>136.803</ele>
        <time>2018-10-20T09:22:16Z</time>
      </trkpt>
      <trkpt lat="44.1445" lon="9.66781">
        <ele>137.567</ele>
        <time>2018-10-20T09:22:24Z</time>
      </trkpt>
      <trkpt lat="44.14454" lon="9.66788">
        <ele>138.099</ele>
        <time>2018-10-20T09:22:31Z</time>
      </trkpt>
      <trkpt lat="44.14455" lon="9.66795">
        <ele>141.764</ele>
        <time>2018-10-20T09:22:44Z</time>
      </trkpt>
      <trkpt lat="44.14452" lon="9.66803">
        <ele>142.288</ele>
        <time>2018-10-20T09:22:51Z</time>
      </trkpt>
      <trkpt lat="44.14451" lon="9.66812">
        <ele>143.185</ele>
        <time>2018-10-20T09:22:58Z</time>
      </trkpt>
      <trkpt lat="44.14451" lon="9.66819">
        <ele>143.779</ele>
        <time>2018-10-20T09:23:05Z</time>
      </trkpt>
      <trkpt lat="44.1445" lon="9.66822">
        <ele>144.385</ele>
        <time>2018-10-20T09:23:08Z</time>
      </trkpt>
      <trkpt lat="44.14448" lon="9.66824">
        <ele>143.182</ele>
        <time>2018-10-20T09:23:15Z</time>
      </trkpt>
      <trkpt lat="44.14448" lon="9.66841">
        <ele>143.717</ele>
        <time>2018-10-20T09:23:27Z</time>
      </trkpt>
      <trkpt lat="44.14448" lon="9.66848">
        <ele>145.716</ele>
        <time>2018-10-20T09:23:36Z</time>
      </trkpt>
      <trkpt lat="44.14447" lon="9.66854">
        <ele>147.686</ele>
        <time>2018-10-20T09:23:44Z</time>
      </trkpt>
      <trkpt lat="44.14446" lon="9.66861">
        <ele>147.965</ele>
        <time>2018-10-20T09:23:51Z</time>
      </trkpt>
      <trkpt lat="44.14445" lon="9.66866">
        <ele>149.348</ele>
        <time>2018-10-20T09:24:00Z</time>
      </trkpt>
      <trkpt lat="44.14446" lon="9.66873">
        <ele>149.914</ele>
        <time>2018-10-20T09:24:06Z</time>
      </trkpt>
      <trkpt lat="44.14445" lon="9.66878">
        <ele>151.046</ele>
        <time>2018-10-20T09:24:13Z</time>
      </trkpt>
      <trkpt lat="44.14444" lon="9.66883">
        <ele>152.082</ele>
        <time>2018-10-20T09:24:20Z</time>
      </trkpt>
      <trkpt lat="44.14447" lon="9.66889">
        <ele>153.074</ele>
        <time>2018-10-20T09:24:28Z</time>
      </trkpt>
      <trkpt lat="44.14448" lon="9.66895">
        <ele>155.655</ele>
        <time>2018-10-20T09:24:38Z</time>
      </trkpt>
      <trkpt lat="44.14445" lon="9.66905">
        <ele>156.339</ele>
        <time>2018-10-20T09:24:48Z</time>
      </trkpt>
      <trkpt lat="44.14444" lon="9.66914">
        <ele>156.289</ele>
        <time>2018-10-20T09:24:55Z</time>
      </trkpt>
      <trkpt lat="44.14443" lon="9.66923">
        <ele>157.799</ele>
        <time>2018-10-20T09:25:03Z</time>
      </trkpt>
      <trkpt lat="44.14443" lon="9.66931">
        <ele>158.339</ele>
        <time>2018-10-20T09:25:09Z</time>
      </trkpt>
      <trkpt lat="44.14442" lon="9.66937">
        <ele>158.31</ele>
        <time>2018-10-20T09:25:14Z</time>
      </trkpt>
      <trkpt lat="44.14441" lon="9.66948">
        <ele>158.363</ele>
        <time>2018-10-20T09:25:21Z</time>
      </trkpt>
      <trkpt lat="44.14438" lon="9.66955">
        <ele>159.474</ele>
        <time>2018-10-20T09:25:28Z</time>
      </trkpt>
      <trkpt lat="44.14436" lon="9.66959">
        <ele>158.694</ele>
        <time>2018-10-20T09:25:32Z</time>
      </trkpt>
      <trkpt lat="44.14437" lon="9.66966">
        <ele>159.315</ele>
        <time>2018-10-20T09:25:39Z</time>
      </trkpt>
      <trkpt lat="44.14436" lon="9.66969">
        <ele>158.81</ele>
        <time>2018-10-20T09:25:41Z</time>
      </trkpt>
      <trkpt lat="44.14436" lon="9.66979">
        <ele>158.204</ele>
        <time>2018-10-20T09:25:49Z</time>
      </trkpt>
      <trkpt lat="44.14434" lon="9.66991">
        <ele>158.906</ele>
        <time>2018-10-20T09:25:59Z</time>
      </trkpt>
      <trkpt lat="44.1443" lon="9.66995">
        <ele>158.937</ele>
        <time>2018-10-20T09:26:19Z</time>
      </trkpt>
      <trkpt lat="44.14427" lon="9.66992">
        <ele>158.947</ele>
        <time>2018-10-20T09:26:30Z</time>
      </trkpt>
      <trkpt lat="44.14426" lon="9.66991">
        <ele>159.762</ele>
        <time>2018-10-20T09:26:33Z</time>
      </trkpt>
      <trkpt lat="44.14419" lon="9.66984">
        <ele>160.827</ele>
        <time>2018-10-20T09:26:41Z</time>
      </trkpt>
      <trkpt lat="44.1441" lon="9.6698">
        <ele>162.507</ele>
        <time>2018-10-20T09:26:54Z</time>
      </trkpt>
      <trkpt lat="44.14405" lon="9.66977">
        <ele>161.966</ele>
        <time>2018-10-20T09:27:03Z</time>
      </trkpt>
      <trkpt lat="44.14402" lon="9.66969">
        <ele>161.394</ele>
        <time>2018-10-20T09:27:13Z</time>
      </trkpt>
      <trkpt lat="44.14399" lon="9.66966">
        <ele>161.043</ele>
        <time>2018-10-20T09:27:24Z</time>
      </trkpt>
      <trkpt lat="44.14396" lon="9.66959">
        <ele>160.833</ele>
        <time>2018-10-20T09:27:29Z</time>
      </trkpt>
      <trkpt lat="44.14388" lon="9.66956">
        <ele>160.079</ele>
        <time>2018-10-20T09:27:37Z</time>
      </trkpt>
      <trkpt lat="44.14381" lon="9.66949">
        <ele>160.576</ele>
        <time>2018-10-20T09:27:44Z</time>
      </trkpt>
      <trkpt lat="44.14372" lon="9.66942">
        <ele>160.353</ele>
        <time>2018-10-20T09:27:54Z</time>
      </trkpt>
      <trkpt lat="44.14365" lon="9.66933">
        <ele>160.196</ele>
        <time>2018-10-20T09:28:04Z</time>
      </trkpt>
      <trkpt lat="44.14361" lon="9.66928">
        <ele>161.538</ele>
        <time>2018-10-20T09:28:20Z</time>
      </trkpt>
      <trkpt lat="44.14356" lon="9.66921">
        <ele>161.542</ele>
        <time>2018-10-20T09:28:25Z</time>
      </trkpt>
      <trkpt lat="44.14351" lon="9.66914">
        <ele>162.036</ele>
        <time>2018-10-20T09:28:33Z</time>
      </trkpt>
      <trkpt lat="44.14349" lon="9.66912">
        <ele>163.334</ele>
        <time>2018-10-20T09:28:39Z</time>
      </trkpt>
      <trkpt lat="44.14343" lon="9.66907">
        <ele>163.85</ele>
        <time>2018-10-20T09:28:47Z</time>
      </trkpt>
      <trkpt lat="44.14336" lon="9.66901">
        <ele>163.848</ele>
        <time>2018-10-20T09:28:57Z</time>
      </trkpt>
      <trkpt lat="44.1433" lon="9.66901">
        <ele>162.713</ele>
        <time>2018-10-20T09:29:04Z</time>
      </trkpt>
      <trkpt lat="44.14323" lon="9.66907">
        <ele>160.429</ele>
        <time>2018-10-20T09:29:14Z</time>
      </trkpt>
      <trkpt lat="44.14315" lon="9.66913">
        <ele>162.076</ele>
        <time>2018-10-20T09:29:25Z</time>
      </trkpt>
      <trkpt lat="44.14314" lon="9.66914">
        <ele>162.263</ele>
        <time>2018-10-20T09:29:28Z</time>
      </trkpt>
      <trkpt lat="44.14311" lon="9.66923">
        <ele>163.671</ele>
        <time>2018-10-20T09:29:36Z</time>
      </trkpt>
      <trkpt lat="44.14305" lon="9.66924">
        <ele>164.021</ele>
        <time>2018-10-20T09:30:05Z</time>
      </trkpt>
      <trkpt lat="44.14301" lon="9.66925">
        <ele>164.533</ele>
        <time>2018-10-20T09:30:14Z</time>
      </trkpt>
      <trkpt lat="44.14296" lon="9.66933">
        <ele>164.56</ele>
        <time>2018-10-20T09:30:22Z</time>
      </trkpt>
      <trkpt lat="44.14296" lon="9.66935">
        <ele>165.383</ele>
        <time>2018-10-20T09:30:23Z</time>
      </trkpt>
      <trkpt lat="44.14293" lon="9.66943">
        <ele>165.964</ele>
        <time>2018-10-20T09:30:30Z</time>
      </trkpt>
      <trkpt lat="44.1429" lon="9.66946">
        <ele>166.721</ele>
        <time>2018-10-20T09:30:33Z</time>
      </trkpt>
      <trkpt lat="44.1429" lon="9.66951">
        <ele>166.777</ele>
        <time>2018-10-20T09:30:36Z</time>
      </trkpt>
      <trkpt lat="44.14287" lon="9.66956">
        <ele>166.132</ele>
        <time>2018-10-20T09:30:42Z</time>
      </trkpt>
      <trkpt lat="44.14283" lon="9.66957">
        <ele>166.03</ele>
        <time>2018-10-20T09:30:47Z</time>
      </trkpt>
      <trkpt lat="44.14277" lon="9.66965">
        <ele>165.833</ele>
        <time>2018-10-20T09:30:55Z</time>
      </trkpt>
      <trkpt lat="44.14275" lon="9.66961">
        <ele>165.966</ele>
        <time>2018-10-20T09:31:04Z</time>
      </trkpt>
      <trkpt lat="44.1427" lon="9.66967">
        <ele>165.39</ele>
        <time>2018-10-20T09:31:10Z</time>
      </trkpt>
      <trkpt lat="44.14268" lon="9.66975">
        <ele>165.557</ele>
        <time>2018-10-20T09:31:16Z</time>
      </trkpt>
      <trkpt lat="44.14264" lon="9.66985">
        <ele>165.359</ele>
        <time>2018-10-20T09:31:22Z</time>
      </trkpt>
      <trkpt lat="44.14256" lon="9.66996">
        <ele>164.968</ele>
        <time>2018-10-20T09:31:33Z</time>
      </trkpt>
      <trkpt lat="44.14254" lon="9.66998">
        <ele>164.757</ele>
        <time>2018-10-20T09:31:36Z</time>
      </trkpt>
      <trkpt lat="44.14251" lon="9.66997">
        <ele>164.283</ele>
        <time>2018-10-20T09:31:44Z</time>
      </trkpt>
      <trkpt lat="44.14249" lon="9.67">
        <ele>163.889</ele>
        <time>2018-10-20T09:31:50Z</time>
      </trkpt>
      <trkpt lat="44.14247" lon="9.67001">
        <ele>162.886</ele>
        <time>2018-10-20T09:31:56Z</time>
      </trkpt>
      <trkpt lat="44.14236" lon="9.6701">
        <ele>161.84</ele>
        <time>2018-10-20T09:32:08Z</time>
      </trkpt>
      <trkpt lat="44.14234" lon="9.67012">
        <ele>161.322</ele>
        <time>2018-10-20T09:32:12Z</time>
      </trkpt>
      <trkpt lat="44.14224" lon="9.67016">
        <ele>161.045</ele>
        <time>2018-10-20T09:32:22Z</time>
      </trkpt>
      <trkpt lat="44.1422" lon="9.67019">
        <ele>160.269</ele>
        <time>2018-10-20T09:32:40Z</time>
      </trkpt>
      <trkpt lat="44.14218" lon="9.67022">
        <ele>159.675</ele>
        <time>2018-10-20T09:32:45Z</time>
      </trkpt>
      <trkpt lat="44.14214" lon="9.67024">
        <ele>160.313</ele>
        <time>2018-10-20T09:32:52Z</time>
      </trkpt>
      <trkpt lat="44.14212" lon="9.67026">
        <ele>160.418</ele>
        <time>2018-10-20T09:33:06Z</time>
      </trkpt>
      <trkpt lat="44.14209" lon="9.67029">
        <ele>161.19</ele>
        <time>2018-10-20T09:33:11Z</time>
      </trkpt>
      <trkpt lat="44.14198" lon="9.67034">
        <ele>160.816</ele>
        <time>2018-10-20T09:33:22Z</time>
      </trkpt>
      <trkpt lat="44.14195" lon="9.67038">
        <ele>160.731</ele>
        <time>2018-10-20T09:33:31Z</time>
      </trkpt>
      <trkpt lat="44.14189" lon="9.67045">
        <ele>160.296</ele>
        <time>2018-10-20T09:33:37Z</time>
      </trkpt>
      <trkpt lat="44.14187" lon="9.67045">
        <ele>160.265</ele>
        <time>2018-10-20T09:33:39Z</time>
      </trkpt>
      <trkpt lat="44.14179" lon="9.67057">
        <ele>158.805</ele>
        <time>2018-10-20T09:33:52Z</time>
      </trkpt>
      <trkpt lat="44.14175" lon="9.67061">
        <ele>157.442</ele>
        <time>2018-10-20T09:33:59Z</time>
      </trkpt>
      <trkpt lat="44.14173" lon="9.67062">
        <ele>157.677</ele>
        <time>2018-10-20T09:34:06Z</time>
      </trkpt>
      <trkpt lat="44.14172" lon="9.67064">
        <ele>157.143</ele>
        <time>2018-10-20T09:34:29Z</time>
      </trkpt>
      <trkpt lat="44.14169" lon="9.6707">
        <ele>156.778</ele>
        <time>2018-10-20T09:34:33Z</time>
      </trkpt>
      <trkpt lat="44.1416" lon="9.67083">
        <ele>155.268</ele>
        <time>2018-10-20T09:34:45Z</time>
      </trkpt>
      <trkpt lat="44.14159" lon="9.67085">
        <ele>154.9</ele>
        <time>2018-10-20T09:34:47Z</time>
      </trkpt>
      <trkpt lat="44.14156" lon="9.67096">
        <ele>155.618</ele>
        <time>2018-10-20T09:34:56Z</time>
      </trkpt>
      <trkpt lat="44.14155" lon="9.67104">
        <ele>156.265</ele>
        <time>2018-10-20T09:35:03Z</time>
      </trkpt>
      <trkpt lat="44.14157" lon="9.67114">
        <ele>157.155</ele>
        <time>2018-10-20T09:35:10Z</time>
      </trkpt>
      <trkpt lat="44.14157" lon="9.67117">
        <ele>157.715</ele>
        <time>2018-10-20T09:35:12Z</time>
      </trkpt>
      <trkpt lat="44.1415" lon="9.6713">
        <ele>156.838</ele>
        <time>2018-10-20T09:35:24Z</time>
      </trkpt>
      <trkpt lat="44.14147" lon="9.67132">
        <ele>156.742</ele>
        <time>2018-10-20T09:35:28Z</time>
      </trkpt>
      <trkpt lat="44.1414" lon="9.67148">
        <ele>157.024</ele>
        <time>2018-10-20T09:35:41Z</time>
      </trkpt>
      <trkpt lat="44.14135" lon="9.67153">
        <ele>157.481</ele>
        <time>2018-10-20T09:35:47Z</time>
      </trkpt>
      <trkpt lat="44.14132" lon="9.67155">
        <ele>157.161</ele>
        <time>2018-10-20T09:35:50Z</time>
      </trkpt>
      <trkpt lat="44.14125" lon="9.6717">
        <ele>156.875</ele>
        <time>2018-10-20T09:36:03Z</time>
      </trkpt>
      <trkpt lat="44.14118" lon="9.67182">
        <ele>156.98</ele>
        <time>2018-10-20T09:36:14Z</time>
      </trkpt>
      <trkpt lat="44.14112" lon="9.67186">
        <ele>156.627</ele>
        <time>2018-10-20T09:36:21Z</time>
      </trkpt>
      <trkpt lat="44.14104" lon="9.67194">
        <ele>157.476</ele>
        <time>2018-10-20T09:36:32Z</time>
      </trkpt>
      <trkpt lat="44.14094" lon="9.672">
        <ele>157.507</ele>
        <time>2018-10-20T09:36:44Z</time>
      </trkpt>
      <trkpt lat="44.14088" lon="9.67207">
        <ele>157.878</ele>
        <time>2018-10-20T09:36:53Z</time>
      </trkpt>
      <trkpt lat="44.1408" lon="9.67217">
        <ele>157.645</ele>
        <time>2018-10-20T09:37:03Z</time>
      </trkpt>
      <trkpt lat="44.14076" lon="9.67219">
        <ele>157.421</ele>
        <time>2018-10-20T09:37:10Z</time>
      </trkpt>
      <trkpt lat="44.14072" lon="9.67225">
        <ele>156.403</ele>
        <time>2018-10-20T09:37:17Z</time>
      </trkpt>
      <trkpt lat="44.14066" lon="9.67233">
        <ele>154.99</ele>
        <time>2018-10-20T09:37:27Z</time>
      </trkpt>
      <trkpt lat="44.1406" lon="9.67241">
        <ele>154.355</ele>
        <time>2018-10-20T09:37:36Z</time>
      </trkpt>
      <trkpt lat="44.14059" lon="9.67245">
        <ele>154.297</ele>
        <time>2018-10-20T09:37:39Z</time>
      </trkpt>
      <trkpt lat="44.14058" lon="9.67256">
        <ele>154.818</ele>
        <time>2018-10-20T09:37:46Z</time>
      </trkpt>
      <trkpt lat="44.14053" lon="9.67265">
        <ele>155.642</ele>
        <time>2018-10-20T09:38:01Z</time>
      </trkpt>
      <trkpt lat="44.14054" lon="9.67277">
        <ele>155.953</ele>
        <time>2018-10-20T09:38:09Z</time>
      </trkpt>
      <trkpt lat="44.14052" lon="9.67287">
        <ele>156.911</ele>
        <time>2018-10-20T09:38:16Z</time>
      </trkpt>
      <trkpt lat="44.1405" lon="9.67294">
        <ele>157.491</ele>
        <time>2018-10-20T09:38:23Z</time>
      </trkpt>
      <trkpt lat="44.14049" lon="9.67305">
        <ele>157.161</ele>
        <time>2018-10-20T09:38:32Z</time>
      </trkpt>
      <trkpt lat="44.14048" lon="9.67311">
        <ele>155.357</ele>
        <time>2018-10-20T09:38:41Z</time>
      </trkpt>
      <trkpt lat="44.14047" lon="9.67312">
        <ele>154.551</ele>
        <time>2018-10-20T09:38:47Z</time>
      </trkpt>
      <trkpt lat="44.14047" lon="9.67319">
        <ele>153.113</ele>
        <time>2018-10-20T09:40:04Z</time>
      </trkpt>
      <trkpt lat="44.1405" lon="9.67327">
        <ele>150.718</ele>
        <time>2018-10-20T09:40:13Z</time>
      </trkpt>
      <trkpt lat="44.1405" lon="9.67338">
        <ele>150.692</ele>
        <time>2018-10-20T09:40:20Z</time>
      </trkpt>
      <trkpt lat="44.14048" lon="9.67346">
        <ele>150.276</ele>
        <time>2018-10-20T09:40:28Z</time>
      </trkpt>
      <trkpt lat="44.14051" lon="9.67351">
        <ele>149.048</ele>
        <time>2018-10-20T09:40:35Z</time>
      </trkpt>
      <trkpt lat="44.14055" lon="9.6736">
        <ele>148.114</ele>
        <time>2018-10-20T09:40:43Z</time>
      </trkpt>
      <trkpt lat="44.14052" lon="9.67371">
        <ele>146.442</ele>
        <time>2018-10-20T09:40:53Z</time>
      </trkpt>
      <trkpt lat="44.14052" lon="9.67375">
        <ele>146.411</ele>
        <time>2018-10-20T09:40:59Z</time>
      </trkpt>
      <trkpt lat="44.14051" lon="9.6739">
        <ele>146.726</ele>
        <time>2018-10-20T09:41:10Z</time>
      </trkpt>
      <trkpt lat="44.1405" lon="9.67401">
        <ele>147.268</ele>
        <time>2018-10-20T09:41:18Z</time>
      </trkpt>
      <trkpt lat="44.14051" lon="9.67409">
        <ele>147.334</ele>
        <time>2018-10-20T09:41:26Z</time>
      </trkpt>
      <trkpt lat="44.14048" lon="9.6741">
        <ele>147.15</ele>
        <time>2018-10-20T09:41:45Z</time>
      </trkpt>
      <trkpt lat="44.14046" lon="9.67419">
        <ele>148.4</ele>
        <time>2018-10-20T09:41:52Z</time>
      </trkpt>
      <trkpt lat="44.14048" lon="9.67432">
        <ele>150.509</ele>
        <time>2018-10-20T09:42:03Z</time>
      </trkpt>
      <trkpt lat="44.14047" lon="9.67443">
        <ele>152.329</ele>
        <time>2018-10-20T09:42:13Z</time>
      </trkpt>
      <trkpt lat="44.14047" lon="9.67449">
        <ele>153.205</ele>
        <time>2018-10-20T09:42:21Z</time>
      </trkpt>
      <trkpt lat="44.14046" lon="9.67453">
        <ele>154.135</ele>
        <time>2018-10-20T09:42:36Z</time>
      </trkpt>
      <trkpt lat="44.14048" lon="9.67458">
        <ele>154.783</ele>
        <time>2018-10-20T09:43:15Z</time>
      </trkpt>
      <trkpt lat="44.14046" lon="9.67463">
        <ele>157.179</ele>
        <time>2018-10-20T09:43:22Z</time>
      </trkpt>
      <trkpt lat="44.14046" lon="9.67472">
        <ele>157.901</ele>
        <time>2018-10-20T09:43:30Z</time>
      </trkpt>
      <trkpt lat="44.14049" lon="9.67484">
        <ele>158.597</ele>
        <time>2018-10-20T09:43:39Z</time>
      </trkpt>
      <trkpt lat="44.1405" lon="9.67488">
        <ele>158.379</ele>
        <time>2018-10-20T09:43:41Z</time>
      </trkpt>
      <trkpt lat="44.14054" lon="9.675">
        <ele>158.868</ele>
        <time>2018-10-20T09:43:50Z</time>
      </trkpt>
      <trkpt lat="44.14052" lon="9.67513">
        <ele>157.951</ele>
        <time>2018-10-20T09:43:58Z</time>
      </trkpt>
      <trkpt lat="44.14049" lon="9.67525">
        <ele>155.037</ele>
        <time>2018-10-20T09:44:11Z</time>
      </trkpt>
      <trkpt lat="44.14048" lon="9.67529">
        <ele>152.609</ele>
        <time>2018-10-20T09:44:35Z</time>
      </trkpt>
      <trkpt lat="44.14048" lon="9.67537">
        <ele>150.456</ele>
        <time>2018-10-20T09:44:44Z</time>
      </trkpt>
      <trkpt lat="44.14047" lon="9.67542">
        <ele>147.764</ele>
        <time>2018-10-20T09:44:54Z</time>
      </trkpt>
      <trkpt lat="44.14048" lon="9.67546">
        <ele>146.798</ele>
        <time>2018-10-20T09:45:00Z</time>
      </trkpt>
      <trkpt lat="44.14046" lon="9.67552">
        <ele>145.524</ele>
        <time>2018-10-20T09:45:06Z</time>
      </trkpt>
      <trkpt lat="44.14047" lon="9.67554">
        <ele>144.696</ele>
        <time>2018-10-20T09:45:08Z</time>
      </trkpt>
      <trkpt lat="44.14054" lon="9.67563">
        <ele>143.673</ele>
        <time>2018-10-20T09:45:17Z</time>
      </trkpt>
      <trkpt lat="44.14053" lon="9.67567">
        <ele>142.52</ele>
        <time>2018-10-20T09:45:51Z</time>
      </trkpt>
      <trkpt lat="44.14053" lon="9.67571">
        <ele>141.454</ele>
        <time>2018-10-20T09:45:57Z</time>
      </trkpt>
      <trkpt lat="44.14056" lon="9.67577">
        <ele>140.885</ele>
        <time>2018-10-20T09:46:05Z</time>
      </trkpt>
      <trkpt lat="44.14056" lon="9.67585">
        <ele>138.917</ele>
        <time>2018-10-20T09:46:13Z</time>
      </trkpt>
      <trkpt lat="44.14057" lon="9.67592">
        <ele>137.437</ele>
        <time>2018-10-20T09:46:20Z</time>
      </trkpt>
      <trkpt lat="44.14061" lon="9.676">
        <ele>136.952</ele>
        <time>2018-10-20T09:47:01Z</time>
      </trkpt>
      <trkpt lat="44.14064" lon="9.67605">
        <ele>135.699</ele>
        <time>2018-10-20T09:47:05Z</time>
      </trkpt>
      <trkpt lat="44.14066" lon="9.6761">
        <ele>134.624</ele>
        <time>2018-10-20T09:47:11Z</time>
      </trkpt>
      <trkpt lat="44.14067" lon="9.67618">
        <ele>134.34</ele>
        <time>2018-10-20T09:47:19Z</time>
      </trkpt>
      <trkpt lat="44.14058" lon="9.67624">
        <ele>135.102</ele>
        <time>2018-10-20T09:47:30Z</time>
      </trkpt>
      <trkpt lat="44.14055" lon="9.67627">
        <ele>136.446</ele>
        <time>2018-10-20T09:47:40Z</time>
      </trkpt>
      <trkpt lat="44.14053" lon="9.67627">
        <ele>136.828</ele>
        <time>2018-10-20T09:47:41Z</time>
      </trkpt>
      <trkpt lat="44.14045" lon="9.67632">
        <ele>138.518</ele>
        <time>2018-10-20T09:47:49Z</time>
      </trkpt>
      <trkpt lat="44.14038" lon="9.67635">
        <ele>140.214</ele>
        <time>2018-10-20T09:47:57Z</time>
      </trkpt>
      <trkpt lat="44.14036" lon="9.67642">
        <ele>141.488</ele>
        <time>2018-10-20T09:48:04Z</time>
      </trkpt>
      <trkpt lat="44.1403" lon="9.67651">
        <ele>143.758</ele>
        <time>2018-10-20T09:48:24Z</time>
      </trkpt>
      <trkpt lat="44.14024" lon="9.67655">
        <ele>146.553</ele>
        <time>2018-10-20T09:48:41Z</time>
      </trkpt>
      <trkpt lat="44.14024" lon="9.67659">
        <ele>146.923</ele>
        <time>2018-10-20T09:48:48Z</time>
      </trkpt>
      <trkpt lat="44.14021" lon="9.67665">
        <ele>147.968</ele>
        <time>2018-10-20T09:48:56Z</time>
      </trkpt>
      <trkpt lat="44.14018" lon="9.67671">
        <ele>148.892</ele>
        <time>2018-10-20T09:49:02Z</time>
      </trkpt>
      <trkpt lat="44.14015" lon="9.67676">
        <ele>150.148</ele>
        <time>2018-10-20T09:49:08Z</time>
      </trkpt>
      <trkpt lat="44.14015" lon="9.67682">
        <ele>150.888</ele>
        <time>2018-10-20T09:49:15Z</time>
      </trkpt>
      <trkpt lat="44.14013" lon="9.67691">
        <ele>151.739</ele>
        <time>2018-10-20T09:49:23Z</time>
      </trkpt>
      <trkpt lat="44.14013" lon="9.67695">
        <ele>151.642</ele>
        <time>2018-10-20T09:49:26Z</time>
      </trkpt>
      <trkpt lat="44.14011" lon="9.67706">
        <ele>151.428</ele>
        <time>2018-10-20T09:49:34Z</time>
      </trkpt>
      <trkpt lat="44.14005" lon="9.67713">
        <ele>150.556</ele>
        <time>2018-10-20T09:49:43Z</time>
      </trkpt>
      <trkpt lat="44.13999" lon="9.67722">
        <ele>150.901</ele>
        <time>2018-10-20T09:49:52Z</time>
      </trkpt>
      <trkpt lat="44.13996" lon="9.67727">
        <ele>151.287</ele>
        <time>2018-10-20T09:49:58Z</time>
      </trkpt>
      <trkpt lat="44.13991" lon="9.67733">
        <ele>152.081</ele>
        <time>2018-10-20T09:50:06Z</time>
      </trkpt>
      <trkpt lat="44.13985" lon="9.67732">
        <ele>151.437</ele>
        <time>2018-10-20T09:50:11Z</time>
      </trkpt>
      <trkpt lat="44.13981" lon="9.67733">
        <ele>151.567</ele>
        <time>2018-10-20T09:50:15Z</time>
      </trkpt>
      <trkpt lat="44.13977" lon="9.67739">
        <ele>152.024</ele>
        <time>2018-10-20T09:50:22Z</time>
      </trkpt>
      <trkpt lat="44.1397" lon="9.67741">
        <ele>152.862</ele>
        <time>2018-10-20T09:50:30Z</time>
      </trkpt>
      <trkpt lat="44.13968" lon="9.67746">
        <ele>154.127</ele>
        <time>2018-10-20T09:50:38Z</time>
      </trkpt>
      <trkpt lat="44.13965" lon="9.67747">
        <ele>155.891</ele>
        <time>2018-10-20T09:50:48Z</time>
      </trkpt>
      <trkpt lat="44.13963" lon="9.67751">
        <ele>157.266</ele>
        <time>2018-10-20T09:50:58Z</time>
      </trkpt>
      <trkpt lat="44.13955" lon="9.6775">
        <ele>158.351</ele>
        <time>2018-10-20T09:51:08Z</time>
      </trkpt>
      <trkpt lat="44.13947" lon="9.67756">
        <ele>159.124</ele>
        <time>2018-10-20T09:51:18Z</time>
      </trkpt>
      <trkpt lat="44.13945" lon="9.67758">
        <ele>159.614</ele>
        <time>2018-10-20T09:51:30Z</time>
      </trkpt>
      <trkpt lat="44.13937" lon="9.67761">
        <ele>160.33</ele>
        <time>2018-10-20T09:51:41Z</time>
      </trkpt>
      <trkpt lat="44.1393" lon="9.67761">
        <ele>160.955</ele>
        <time>2018-10-20T09:51:50Z</time>
      </trkpt>
      <trkpt lat="44.13925" lon="9.67765">
        <ele>161.245</ele>
        <time>2018-10-20T09:52:03Z</time>
      </trkpt>
      <trkpt lat="44.13915" lon="9.67771">
        <ele>161.803</ele>
        <time>2018-10-20T09:52:13Z</time>
      </trkpt>
      <trkpt lat="44.13909" lon="9.67775">
        <ele>162.316</ele>
        <time>2018-10-20T09:52:21Z</time>
      </trkpt>
      <trkpt lat="44.13907" lon="9.67776">
        <ele>162.263</ele>
        <time>2018-10-20T09:52:23Z</time>
      </trkpt>
      <trkpt lat="44.139" lon="9.67781">
        <ele>162.055</ele>
        <time>2018-10-20T09:52:31Z</time>
      </trkpt>
      <trkpt lat="44.13895" lon="9.67784">
        <ele>161.797</ele>
        <time>2018-10-20T09:52:37Z</time>
      </trkpt>
      <trkpt lat="44.13887" lon="9.67782">
        <ele>161.143</ele>
        <time>2018-10-20T09:52:45Z</time>
      </trkpt>
      <trkpt lat="44.13875" lon="9.67784">
        <ele>160.497</ele>
        <time>2018-10-20T09:52:54Z</time>
      </trkpt>
      <trkpt lat="44.13871" lon="9.67787">
        <ele>160.39</ele>
        <time>2018-10-20T09:53:04Z</time>
      </trkpt>
      <trkpt lat="44.13862" lon="9.67793">
        <ele>160.099</ele>
        <time>2018-10-20T09:53:13Z</time>
      </trkpt>
      <trkpt lat="44.13855" lon="9.67793">
        <ele>159.795</ele>
        <time>2018-10-20T09:53:24Z</time>
      </trkpt>
      <trkpt lat="44.13853" lon="9.67794">
        <ele>160.018</ele>
        <time>2018-10-20T09:53:34Z</time>
      </trkpt>
      <trkpt lat="44.13848" lon="9.67794">
        <ele>159.583</ele>
        <time>2018-10-20T09:53:49Z</time>
      </trkpt>
      <trkpt lat="44.13841" lon="9.67797">
        <ele>157.555</ele>
        <time>2018-10-20T09:53:59Z</time>
      </trkpt>
      <trkpt lat="44.13839" lon="9.67797">
        <ele>157.085</ele>
        <time>2018-10-20T09:54:01Z</time>
      </trkpt>
      <trkpt lat="44.13836" lon="9.67801">
        <ele>157.318</ele>
        <time>2018-10-20T09:55:57Z</time>
      </trkpt>
      <trkpt lat="44.13832" lon="9.67806">
        <ele>157.127</ele>
        <time>2018-10-20T09:56:07Z</time>
      </trkpt>
      <trkpt lat="44.1383" lon="9.67808">
        <ele>156.757</ele>
        <time>2018-10-20T09:56:16Z</time>
      </trkpt>
      <trkpt lat="44.13827" lon="9.6782">
        <ele>152.995</ele>
        <time>2018-10-20T09:56:42Z</time>
      </trkpt>
      <trkpt lat="44.13822" lon="9.67824">
        <ele>150.714</ele>
        <time>2018-10-20T09:56:52Z</time>
      </trkpt>
      <trkpt lat="44.13821" lon="9.67831">
        <ele>150.497</ele>
        <time>2018-10-20T09:56:59Z</time>
      </trkpt>
      <trkpt lat="44.1382" lon="9.67841">
        <ele>150.196</ele>
        <time>2018-10-20T09:57:07Z</time>
      </trkpt>
      <trkpt lat="44.1382" lon="9.67847">
        <ele>149.277</ele>
        <time>2018-10-20T09:57:14Z</time>
      </trkpt>
      <trkpt lat="44.1382" lon="9.67853">
        <ele>148.393</ele>
        <time>2018-10-20T09:57:21Z</time>
      </trkpt>
      <trkpt lat="44.13823" lon="9.67864">
        <ele>146.946</ele>
        <time>2018-10-20T09:57:30Z</time>
      </trkpt>
      <trkpt lat="44.13818" lon="9.67867">
        <ele>143.318</ele>
        <time>2018-10-20T09:57:44Z</time>
      </trkpt>
      <trkpt lat="44.13816" lon="9.67873">
        <ele>142.625</ele>
        <time>2018-10-20T09:57:50Z</time>
      </trkpt>
      <trkpt lat="44.13816" lon="9.67877">
        <ele>141.416</ele>
        <time>2018-10-20T09:57:55Z</time>
      </trkpt>
      <trkpt lat="44.13816" lon="9.67881">
        <ele>140.228</ele>
        <time>2018-10-20T09:58:02Z</time>
      </trkpt>
      <trkpt lat="44.13823" lon="9.67892">
        <ele>139.201</ele>
        <time>2018-10-20T09:58:14Z</time>
      </trkpt>
      <trkpt lat="44.13825" lon="9.67899">
        <ele>138.548</ele>
        <time>2018-10-20T09:58:21Z</time>
      </trkpt>
      <trkpt lat="44.13826" lon="9.67906">
        <ele>136.299</ele>
        <time>2018-10-20T10:02:32Z</time>
      </trkpt>
      <trkpt lat="44.13829" lon="9.67912">
        <ele>134.984</ele>
        <time>2018-10-20T10:02:40Z</time>
      </trkpt>
      <trkpt lat="44.13829" lon="9.67916">
        <ele>133.673</ele>
        <time>2018-10-20T10:02:47Z</time>
      </trkpt>
      <trkpt lat="44.13832" lon="9.67923">
        <ele>131.613</ele>
        <time>2018-10-20T10:02:55Z</time>
      </trkpt>
      <trkpt lat="44.13832" lon="9.67927">
        <ele>129.98</ele>
        <time>2018-10-20T10:03:02Z</time>
      </trkpt>
      <trkpt lat="44.13831" lon="9.67932">
        <ele>127.885</ele>
        <time>2018-10-20T10:03:08Z</time>
      </trkpt>
      <trkpt lat="44.13827" lon="9.67939">
        <ele>125.746</ele>
        <time>2018-10-20T10:03:18Z</time>
      </trkpt>
      <trkpt lat="44.13824" lon="9.67944">
        <ele>123.481</ele>
        <time>2018-10-20T10:03:25Z</time>
      </trkpt>
      <trkpt lat="44.13819" lon="9.67956">
        <ele>121.38</ele>
        <time>2018-10-20T10:03:37Z</time>
      </trkpt>
      <trkpt lat="44.13815" lon="9.67961">
        <ele>120.459</ele>
        <time>2018-10-20T10:03:45Z</time>
      </trkpt>
      <trkpt lat="44.13811" lon="9.67965">
        <ele>118.133</ele>
        <time>2018-10-20T10:03:54Z</time>
      </trkpt>
      <trkpt lat="44.13808" lon="9.67971">
        <ele>114.86</ele>
        <time>2018-10-20T10:04:04Z</time>
      </trkpt>
      <trkpt lat="44.13805" lon="9.67976">
        <ele>114.462</ele>
        <time>2018-10-20T10:04:10Z</time>
      </trkpt>
      <trkpt lat="44.13803" lon="9.67978">
        <ele>113.136</ele>
        <time>2018-10-20T10:04:13Z</time>
      </trkpt>
      <trkpt lat="44.13801" lon="9.67982">
        <ele>112.181</ele>
        <time>2018-10-20T10:04:20Z</time>
      </trkpt>
      <trkpt lat="44.13797" lon="9.67987">
        <ele>111.605</ele>
        <time>2018-10-20T10:04:28Z</time>
      </trkpt>
      <trkpt lat="44.13795" lon="9.67991">
        <ele>111.125</ele>
        <time>2018-10-20T10:04:34Z</time>
      </trkpt>
      <trkpt lat="44.13791" lon="9.67995">
        <ele>109.662</ele>
        <time>2018-10-20T10:04:41Z</time>
      </trkpt>
      <trkpt lat="44.13787" lon="9.67998">
        <ele>107.113</ele>
        <time>2018-10-20T10:04:51Z</time>
      </trkpt>
      <trkpt lat="44.13786" lon="9.67998">
        <ele>106.475</ele>
        <time>2018-10-20T10:04:59Z</time>
      </trkpt>
      <trkpt lat="44.13779" lon="9.68004">
        <ele>104.713</ele>
        <time>2018-10-20T10:05:11Z</time>
      </trkpt>
      <trkpt lat="44.13776" lon="9.68008">
        <ele>103.465</ele>
        <time>2018-10-20T10:05:16Z</time>
      </trkpt>
      <trkpt lat="44.13773" lon="9.68011">
        <ele>103.176</ele>
        <time>2018-10-20T10:05:20Z</time>
      </trkpt>
      <trkpt lat="44.1377" lon="9.68017">
        <ele>102.873</ele>
        <time>2018-10-20T10:05:29Z</time>
      </trkpt>
      <trkpt lat="44.13768" lon="9.6802">
        <ele>102.226</ele>
        <time>2018-10-20T10:05:36Z</time>
      </trkpt>
      <trkpt lat="44.13766" lon="9.68026">
        <ele>101.175</ele>
        <time>2018-10-20T10:05:42Z</time>
      </trkpt>
      <trkpt lat="44.13763" lon="9.68031">
        <ele>99.803</ele>
        <time>2018-10-20T10:05:50Z</time>
      </trkpt>
      <trkpt lat="44.13761" lon="9.68036">
        <ele>98.058</ele>
        <time>2018-10-20T10:06:00Z</time>
      </trkpt>
      <trkpt lat="44.13757" lon="9.6804">
        <ele>95.535</ele>
        <time>2018-10-20T10:06:12Z</time>
      </trkpt>
      <trkpt lat="44.13753" lon="9.6804">
        <ele>94.149</ele>
        <time>2018-10-20T10:06:18Z</time>
      </trkpt>
      <trkpt lat="44.13748" lon="9.68039">
        <ele>91.629</ele>
        <time>2018-10-20T10:06:29Z</time>
      </trkpt>
      <trkpt lat="44.13744" lon="9.68043">
        <ele>88.236</ele>
        <time>2018-10-20T10:06:48Z</time>
      </trkpt>
      <trkpt lat="44.13742" lon="9.68041">
        <ele>86.574</ele>
        <time>2018-10-20T10:07:23Z</time>
      </trkpt>
      <trkpt lat="44.13739" lon="9.68038">
        <ele>83.978</ele>
        <time>2018-10-20T10:07:30Z</time>
      </trkpt>
      <trkpt lat="44.13735" lon="9.68038">
        <ele>80.673</ele>
        <time>2018-10-20T10:07:38Z</time>
      </trkpt>
      <trkpt lat="44.1373" lon="9.68046">
        <ele>79.947</ele>
        <time>2018-10-20T10:07:46Z</time>
      </trkpt>
      <trkpt lat="44.13723" lon="9.68052">
        <ele>77.169</ele>
        <time>2018-10-20T10:07:55Z</time>
      </trkpt>
      <trkpt lat="44.13716" lon="9.68052">
        <ele>75.591</ele>
        <time>2018-10-20T10:08:05Z</time>
      </trkpt>
      <trkpt lat="44.13712" lon="9.68055">
        <ele>75.296</ele>
        <time>2018-10-20T10:08:22Z</time>
      </trkpt>
      <trkpt lat="44.13702" lon="9.6806">
        <ele>72.952</ele>
        <time>2018-10-20T10:08:33Z</time>
      </trkpt>
      <trkpt lat="44.13697" lon="9.68062">
        <ele>69.889</ele>
        <time>2018-10-20T10:08:42Z</time>
      </trkpt>
      <trkpt lat="44.13692" lon="9.68065">
        <ele>68.656</ele>
        <time>2018-10-20T10:08:49Z</time>
      </trkpt>
      <trkpt lat="44.13689" lon="9.6807">
        <ele>67.823</ele>
        <time>2018-10-20T10:08:56Z</time>
      </trkpt>
      <trkpt lat="44.13682" lon="9.68076">
        <ele>64.893</ele>
        <time>2018-10-20T10:09:06Z</time>
      </trkpt>
      <trkpt lat="44.13679" lon="9.68088">
        <ele>64.57</ele>
        <time>2018-10-20T10:09:18Z</time>
      </trkpt>
      <trkpt lat="44.13676" lon="9.68097">
        <ele>63.187</ele>
        <time>2018-10-20T10:09:26Z</time>
      </trkpt>
      <trkpt lat="44.13669" lon="9.68109">
        <ele>62.011</ele>
        <time>2018-10-20T10:09:38Z</time>
      </trkpt>
      <trkpt lat="44.13667" lon="9.68112">
        <ele>60.377</ele>
        <time>2018-10-20T10:09:42Z</time>
      </trkpt>
      <trkpt lat="44.13665" lon="9.68118">
        <ele>59.163</ele>
        <time>2018-10-20T10:09:50Z</time>
      </trkpt>
      <trkpt lat="44.13664" lon="9.68121">
        <ele>58.602</ele>
        <time>2018-10-20T10:10:21Z</time>
      </trkpt>
      <trkpt lat="44.13663" lon="9.68124">
        <ele>58.515</ele>
        <time>2018-10-20T10:10:24Z</time>
      </trkpt>
      <trkpt lat="44.13657" lon="9.68137">
        <ele>57.469</ele>
        <time>2018-10-20T10:10:38Z</time>
      </trkpt>
      <trkpt lat="44.13657" lon="9.68141">
        <ele>56.848</ele>
        <time>2018-10-20T10:10:47Z</time>
      </trkpt>
      <trkpt lat="44.13656" lon="9.68145">
        <ele>56.196</ele>
        <time>2018-10-20T10:11:43Z</time>
      </trkpt>
      <trkpt lat="44.13656" lon="9.68152">
        <ele>54.8</ele>
        <time>2018-10-20T10:11:57Z</time>
      </trkpt>
      <trkpt lat="44.13659" lon="9.68163">
        <ele>51.372</ele>
        <time>2018-10-20T10:12:09Z</time>
      </trkpt>
      <trkpt lat="44.13662" lon="9.68174">
        <ele>47.531</ele>
        <time>2018-10-20T10:12:22Z</time>
      </trkpt>
      <trkpt lat="44.13664" lon="9.6818">
        <ele>45.273</ele>
        <time>2018-10-20T10:12:31Z</time>
      </trkpt>
      <trkpt lat="44.13667" lon="9.68188">
        <ele>43.94</ele>
        <time>2018-10-20T10:12:49Z</time>
      </trkpt>
      <trkpt lat="44.1367" lon="9.68196">
        <ele>40.926</ele>
        <time>2018-10-20T10:13:00Z</time>
      </trkpt>
      <trkpt lat="44.13671" lon="9.68194">
        <ele>41.231</ele>
        <time>2018-10-20T10:13:13Z</time>
      </trkpt>
      <trkpt lat="44.13671" lon="9.68198">
        <ele>39.879</ele>
        <time>2018-10-20T10:13:20Z</time>
      </trkpt>
      <trkpt lat="44.13675" lon="9.68204">
        <ele>38.38</ele>
        <time>2018-10-20T10:13:31Z</time>
      </trkpt>
      <trkpt lat="44.13679" lon="9.68216">
        <ele>35.968</ele>
        <time>2018-10-20T10:13:43Z</time>
      </trkpt>
      <trkpt lat="44.1368" lon="9.6822">
        <ele>34.909</ele>
        <time>2018-10-20T10:13:49Z</time>
      </trkpt>
      <trkpt lat="44.13676" lon="9.68229">
        <ele>34.101</ele>
        <time>2018-10-20T10:13:58Z</time>
      </trkpt>
      <trkpt lat="44.13674" lon="9.68233">
        <ele>35.358</ele>
        <time>2018-10-20T10:14:02Z</time>
      </trkpt>
      <trkpt lat="44.13668" lon="9.68234">
        <ele>36.184</ele>
        <time>2018-10-20T10:14:09Z</time>
      </trkpt>
      <trkpt lat="44.13664" lon="9.68234">
        <ele>37.51</ele>
        <time>2018-10-20T10:14:16Z</time>
      </trkpt>
      <trkpt lat="44.13662" lon="9.68233">
        <ele>37.694</ele>
        <time>2018-10-20T10:14:25Z</time>
      </trkpt>
      <trkpt lat="44.13659" lon="9.68231">
        <ele>37.632</ele>
        <time>2018-10-20T10:14:35Z</time>
      </trkpt>
      <trkpt lat="44.13659" lon="9.68228">
        <ele>37.964</ele>
        <time>2018-10-20T10:14:44Z</time>
      </trkpt>
      <trkpt lat="44.13657" lon="9.68228">
        <ele>37.913</ele>
        <time>2018-10-20T10:14:55Z</time>
      </trkpt>
      <trkpt lat="44.13654" lon="9.68224">
        <ele>36.795</ele>
        <time>2018-10-20T10:15:11Z</time>
      </trkpt>
      <trkpt lat="44.13647" lon="9.68226">
        <ele>36.218</ele>
        <time>2018-10-20T10:15:24Z</time>
      </trkpt>
      <trkpt lat="44.13645" lon="9.68231">
        <ele>36.155</ele>
        <time>2018-10-20T10:15:35Z</time>
      </trkpt>
      <trkpt lat="44.13644" lon="9.68239">
        <ele>36.292</ele>
        <time>2018-10-20T10:15:59Z</time>
      </trkpt>
      <trkpt lat="44.13641" lon="9.68246">
        <ele>36.442</ele>
        <time>2018-10-20T10:16:16Z</time>
      </trkpt>
      <trkpt lat="44.13634" lon="9.68254">
        <ele>36.609</ele>
        <time>2018-10-20T10:16:25Z</time>
      </trkpt>
      <trkpt lat="44.13632" lon="9.68259">
        <ele>35.563</ele>
        <time>2018-10-20T10:16:34Z</time>
      </trkpt>
      <trkpt lat="44.13625" lon="9.68264">
        <ele>35.518</ele>
        <time>2018-10-20T10:16:42Z</time>
      </trkpt>
      <trkpt lat="44.13622" lon="9.68266">
        <ele>35.149</ele>
        <time>2018-10-20T10:16:50Z</time>
      </trkpt>
      <trkpt lat="44.13619" lon="9.68269">
        <ele>34.668</ele>
        <time>2018-10-20T10:17:05Z</time>
      </trkpt>
      <trkpt lat="44.13615" lon="9.68271">
        <ele>33.979</ele>
        <time>2018-10-20T10:17:09Z</time>
      </trkpt>
      <trkpt lat="44.13612" lon="9.6827">
        <ele>33.328</ele>
        <time>2018-10-20T10:17:18Z</time>
      </trkpt>
      <trkpt lat="44.13611" lon="9.68273">
        <ele>33.8</ele>
        <time>2018-10-20T10:18:25Z</time>
      </trkpt>
      <trkpt lat="44.13607" lon="9.68278">
        <ele>32.554</ele>
        <time>2018-10-20T10:18:34Z</time>
      </trkpt>
      <trkpt lat="44.13603" lon="9.68281">
        <ele>32.452</ele>
        <time>2018-10-20T10:18:53Z</time>
      </trkpt>
      <trkpt lat="44.13605" lon="9.68279">
        <ele>32.357</ele>
        <time>2018-10-20T10:19:18Z</time>
      </trkpt>
      <trkpt lat="44.13604" lon="9.6828">
        <ele>32.242</ele>
        <time>2018-10-20T10:19:28Z</time>
      </trkpt>
      <trkpt lat="44.136" lon="9.68282">
        <ele>32.136</ele>
        <time>2018-10-20T10:19:31Z</time>
      </trkpt>
      <trkpt lat="44.13594" lon="9.68283">
        <ele>31.235</ele>
        <time>2018-10-20T10:19:41Z</time>
      </trkpt>
      <trkpt lat="44.13589" lon="9.68283">
        <ele>29.555</ele>
        <time>2018-10-20T10:20:08Z</time>
      </trkpt>
      <trkpt lat="44.1358" lon="9.68286">
        <ele>28.252</ele>
        <time>2018-10-20T10:20:16Z</time>
      </trkpt>
      <trkpt lat="44.13575" lon="9.68286">
        <ele>28.094</ele>
        <time>2018-10-20T10:20:47Z</time>
      </trkpt>
      <trkpt lat="44.13574" lon="9.68289">
        <ele>28.085</ele>
        <time>2018-10-20T10:21:00Z</time>
      </trkpt>
      <trkpt lat="44.13568" lon="9.68287">
        <ele>27.505</ele>
        <time>2018-10-20T10:21:12Z</time>
      </trkpt>
      <trkpt lat="44.1356" lon="9.68289">
        <ele>26.879</ele>
        <time>2018-10-20T10:21:24Z</time>
      </trkpt>
      <trkpt lat="44.13559" lon="9.68288">
        <ele>25.636</ele>
        <time>2018-10-20T10:21:48Z</time>
      </trkpt>
      <trkpt lat="44.13556" lon="9.68287">
        <ele>24.891</ele>
        <time>2018-10-20T10:21:51Z</time>
      </trkpt>
      <trkpt lat="44.13549" lon="9.68285">
        <ele>23.408</ele>
        <time>2018-10-20T10:22:00Z</time>
      </trkpt>
      <trkpt lat="44.13544" lon="9.68289">
        <ele>21.211</ele>
        <time>2018-10-20T10:22:08Z</time>
      </trkpt>
      <trkpt lat="44.13542" lon="9.68287">
        <ele>19.669</ele>
        <time>2018-10-20T10:22:15Z</time>
      </trkpt>
      <trkpt lat="44.13536" lon="9.68288">
        <ele>17.875</ele>
        <time>2018-10-20T10:22:32Z</time>
      </trkpt>
      <trkpt lat="44.13533" lon="9.6829">
        <ele>18.006</ele>
        <time>2018-10-20T10:22:54Z</time>
      </trkpt>
      <trkpt lat="44.13536" lon="9.68299">
        <ele>17.955</ele>
        <time>2018-10-20T10:23:02Z</time>
      </trkpt>
      <trkpt lat="44.13531" lon="9.68303">
        <ele>15.585</ele>
        <time>2018-10-20T10:23:22Z</time>
      </trkpt>
      <trkpt lat="44.13532" lon="9.68307">
        <ele>15.314</ele>
        <time>2018-10-20T10:23:37Z</time>
      </trkpt>
      <trkpt lat="44.13529" lon="9.68315">
        <ele>15.866</ele>
        <time>2018-10-20T10:23:51Z</time>
      </trkpt>
      <trkpt lat="44.1352" lon="9.68325">
        <ele>13.763</ele>
        <time>2018-10-20T10:24:04Z</time>
      </trkpt>
      <trkpt lat="44.1351" lon="9.6833">
        <ele>13.939</ele>
        <time>2018-10-20T10:24:15Z</time>
      </trkpt>
      <trkpt lat="44.13506" lon="9.68342">
        <ele>13.406</ele>
        <time>2018-10-20T10:24:25Z</time>
      </trkpt>
      <trkpt lat="44.13501" lon="9.68341">
        <ele>10.751</ele>
        <time>2018-10-20T10:25:02Z</time>
      </trkpt>
      <trkpt lat="44.135" lon="9.68347">
        <ele>8.905</ele>
        <time>2018-10-20T10:25:12Z</time>
      </trkpt>
      <trkpt lat="44.13497" lon="9.6835">
        <ele>8.839</ele>
        <time>2018-10-20T10:25:35Z</time>
      </trkpt>
      <trkpt lat="44.13494" lon="9.68353">
        <ele>8.807</ele>
        <time>2018-10-20T10:26:13Z</time>
      </trkpt>
      <trkpt lat="44.13492" lon="9.68351">
        <ele>8.37</ele>
        <time>2018-10-20T10:26:35Z</time>
      </trkpt>
      <trkpt lat="44.13485" lon="9.68351">
        <ele>7.166</ele>
        <time>2018-10-20T10:26:49Z</time>
      </trkpt>
      <trkpt lat="44.13479" lon="9.68352">
        <ele>6.381</ele>
        <time>2018-10-20T10:28:10Z</time>
      </trkpt>
    </trkseg>
  </trk>
</gpx>